<?xml version="1.0" encoding="UTF-8" standalone="no" ?>
<gpx xmlns="http://www.topografix.com/GPX/1/1" xmlns:xsi="http://www.w3.org/2001/XMLSchema-instance" xsi:schemaLocation="http://www.topografix.com/GPX/1/1 http://www.topografix.com/GPX/1/1/gpx.xsd" version="1.1" creator="VisuGPX - https://www.visugpx.com">
  <metadata>
    <name>Entre OUGES et BRETENNIERE</name>
    <desc><![CDATA[Bonne marche de 10 km, sans réelle difficulté, dans la Plaine de Saône.]]></desc>
  </metadata>
  <trk>
    <name><![CDATA[2015-12-15-01]]></name>
    <trkseg>
      <trkpt lat="47.26337" lon="5.07576">
        <ele>218.9</ele>
        <time>2015-12-15T12:53:51Z</time>
      </trkpt>
      <trkpt lat="47.26337" lon="5.07577">
        <ele>218.9</ele>
        <time>2015-12-15T12:53:52Z</time>
      </trkpt>
      <trkpt lat="47.26343" lon="5.07588">
        <ele>218.8</ele>
        <time>2015-12-15T12:53:59Z</time>
      </trkpt>
      <trkpt lat="47.26344" lon="5.07602">
        <ele>218.5</ele>
        <time>2015-12-15T12:54:08Z</time>
      </trkpt>
      <trkpt lat="47.26354" lon="5.07611">
        <ele>218.2</ele>
        <time>2015-12-15T12:54:19Z</time>
      </trkpt>
      <trkpt lat="47.26364" lon="5.07611">
        <ele>218.1</ele>
        <time>2015-12-15T12:54:24Z</time>
      </trkpt>
      <trkpt lat="47.26372" lon="5.07619">
        <ele>217.9</ele>
        <time>2015-12-15T12:54:29Z</time>
      </trkpt>
      <trkpt lat="47.26378" lon="5.07631">
        <ele>217.6</ele>
        <time>2015-12-15T12:54:35Z</time>
      </trkpt>
      <trkpt lat="47.26384" lon="5.07643">
        <ele>217.4</ele>
        <time>2015-12-15T12:54:45Z</time>
      </trkpt>
      <trkpt lat="47.26392" lon="5.07652">
        <ele>217.2</ele>
        <time>2015-12-15T12:54:54Z</time>
      </trkpt>
      <trkpt lat="47.26397" lon="5.07663">
        <ele>217.1</ele>
        <time>2015-12-15T12:55:05Z</time>
      </trkpt>
      <trkpt lat="47.26402" lon="5.07675">
        <ele>216.9</ele>
        <time>2015-12-15T12:55:14Z</time>
      </trkpt>
      <trkpt lat="47.2641" lon="5.07682">
        <ele>216.9</ele>
        <time>2015-12-15T12:55:22Z</time>
      </trkpt>
      <trkpt lat="47.26416" lon="5.07695">
        <ele>216.7</ele>
        <time>2015-12-15T12:55:29Z</time>
      </trkpt>
      <trkpt lat="47.26422" lon="5.07705">
        <ele>216.6</ele>
        <time>2015-12-15T12:55:34Z</time>
      </trkpt>
      <trkpt lat="47.26427" lon="5.07717">
        <ele>216.6</ele>
        <time>2015-12-15T12:55:40Z</time>
      </trkpt>
      <trkpt lat="47.26433" lon="5.07729">
        <ele>216.6</ele>
        <time>2015-12-15T12:55:48Z</time>
      </trkpt>
      <trkpt lat="47.26439" lon="5.0774">
        <ele>216.6</ele>
        <time>2015-12-15T12:56:21Z</time>
      </trkpt>
      <trkpt lat="47.26445" lon="5.07753">
        <ele>216.7</ele>
        <time>2015-12-15T12:56:26Z</time>
      </trkpt>
      <trkpt lat="47.26445" lon="5.07767">
        <ele>216.8</ele>
        <time>2015-12-15T12:56:33Z</time>
      </trkpt>
      <trkpt lat="47.26438" lon="5.07778">
        <ele>216.7</ele>
        <time>2015-12-15T12:56:43Z</time>
      </trkpt>
      <trkpt lat="47.26429" lon="5.07785">
        <ele>216.6</ele>
        <time>2015-12-15T12:56:50Z</time>
      </trkpt>
      <trkpt lat="47.26421" lon="5.07793">
        <ele>216.6</ele>
        <time>2015-12-15T12:56:58Z</time>
      </trkpt>
      <trkpt lat="47.26414" lon="5.07801">
        <ele>216.7</ele>
        <time>2015-12-15T12:57:06Z</time>
      </trkpt>
      <trkpt lat="47.26406" lon="5.07811">
        <ele>216.9</ele>
        <time>2015-12-15T12:57:14Z</time>
      </trkpt>
      <trkpt lat="47.26399" lon="5.07821">
        <ele>217.1</ele>
        <time>2015-12-15T12:57:22Z</time>
      </trkpt>
      <trkpt lat="47.26391" lon="5.07829">
        <ele>217.3</ele>
        <time>2015-12-15T12:57:30Z</time>
      </trkpt>
      <trkpt lat="47.26384" lon="5.07839">
        <ele>217.4</ele>
        <time>2015-12-15T12:57:38Z</time>
      </trkpt>
      <trkpt lat="47.26376" lon="5.07849">
        <ele>217.4</ele>
        <time>2015-12-15T12:57:46Z</time>
      </trkpt>
      <trkpt lat="47.26369" lon="5.07858">
        <ele>217.4</ele>
        <time>2015-12-15T12:57:54Z</time>
      </trkpt>
      <trkpt lat="47.26361" lon="5.07867">
        <ele>217.4</ele>
        <time>2015-12-15T12:58:02Z</time>
      </trkpt>
      <trkpt lat="47.26354" lon="5.07877">
        <ele>217.4</ele>
        <time>2015-12-15T12:58:10Z</time>
      </trkpt>
      <trkpt lat="47.26347" lon="5.07885">
        <ele>217.3</ele>
        <time>2015-12-15T12:58:17Z</time>
      </trkpt>
      <trkpt lat="47.2634" lon="5.07894">
        <ele>217.3</ele>
        <time>2015-12-15T12:58:24Z</time>
      </trkpt>
      <trkpt lat="47.26333" lon="5.07903">
        <ele>217.2</ele>
        <time>2015-12-15T12:58:31Z</time>
      </trkpt>
      <trkpt lat="47.26326" lon="5.07911">
        <ele>217.2</ele>
        <time>2015-12-15T12:58:38Z</time>
      </trkpt>
      <trkpt lat="47.26318" lon="5.07919">
        <ele>217.3</ele>
        <time>2015-12-15T12:58:45Z</time>
      </trkpt>
      <trkpt lat="47.26311" lon="5.07928">
        <ele>217.3</ele>
        <time>2015-12-15T12:58:52Z</time>
      </trkpt>
      <trkpt lat="47.26304" lon="5.07938">
        <ele>217.2</ele>
        <time>2015-12-15T12:59:00Z</time>
      </trkpt>
      <trkpt lat="47.26297" lon="5.07948">
        <ele>217.2</ele>
        <time>2015-12-15T12:59:08Z</time>
      </trkpt>
      <trkpt lat="47.2629" lon="5.07957">
        <ele>217.1</ele>
        <time>2015-12-15T12:59:16Z</time>
      </trkpt>
      <trkpt lat="47.26282" lon="5.07965">
        <ele>217.1</ele>
        <time>2015-12-15T12:59:23Z</time>
      </trkpt>
      <trkpt lat="47.26275" lon="5.07976">
        <ele>217</ele>
        <time>2015-12-15T12:59:32Z</time>
      </trkpt>
      <trkpt lat="47.26268" lon="5.07986">
        <ele>216.9</ele>
        <time>2015-12-15T12:59:40Z</time>
      </trkpt>
      <trkpt lat="47.26261" lon="5.07995">
        <ele>216.9</ele>
        <time>2015-12-15T12:59:48Z</time>
      </trkpt>
      <trkpt lat="47.26253" lon="5.08004">
        <ele>216.9</ele>
        <time>2015-12-15T12:59:56Z</time>
      </trkpt>
      <trkpt lat="47.26246" lon="5.08013">
        <ele>217</ele>
        <time>2015-12-15T13:00:03Z</time>
      </trkpt>
      <trkpt lat="47.26239" lon="5.08022">
        <ele>216.9</ele>
        <time>2015-12-15T13:00:10Z</time>
      </trkpt>
      <trkpt lat="47.26232" lon="5.08031">
        <ele>216.8</ele>
        <time>2015-12-15T13:00:17Z</time>
      </trkpt>
      <trkpt lat="47.26224" lon="5.08041">
        <ele>216.7</ele>
        <time>2015-12-15T13:00:25Z</time>
      </trkpt>
      <trkpt lat="47.26217" lon="5.0805">
        <ele>216.6</ele>
        <time>2015-12-15T13:00:32Z</time>
      </trkpt>
      <trkpt lat="47.2621" lon="5.08059">
        <ele>216.5</ele>
        <time>2015-12-15T13:00:39Z</time>
      </trkpt>
      <trkpt lat="47.26203" lon="5.08068">
        <ele>216.4</ele>
        <time>2015-12-15T13:00:46Z</time>
      </trkpt>
      <trkpt lat="47.26195" lon="5.08076">
        <ele>216.3</ele>
        <time>2015-12-15T13:00:53Z</time>
      </trkpt>
      <trkpt lat="47.26188" lon="5.08085">
        <ele>216.3</ele>
        <time>2015-12-15T13:01:00Z</time>
      </trkpt>
      <trkpt lat="47.2618" lon="5.08093">
        <ele>216.1</ele>
        <time>2015-12-15T13:01:07Z</time>
      </trkpt>
      <trkpt lat="47.26173" lon="5.08102">
        <ele>216.1</ele>
        <time>2015-12-15T13:01:15Z</time>
      </trkpt>
      <trkpt lat="47.26165" lon="5.0811">
        <ele>216</ele>
        <time>2015-12-15T13:01:23Z</time>
      </trkpt>
      <trkpt lat="47.26157" lon="5.08119">
        <ele>215.9</ele>
        <time>2015-12-15T13:01:31Z</time>
      </trkpt>
      <trkpt lat="47.2615" lon="5.08129">
        <ele>215.9</ele>
        <time>2015-12-15T13:01:39Z</time>
      </trkpt>
      <trkpt lat="47.26143" lon="5.08138">
        <ele>215.9</ele>
        <time>2015-12-15T13:01:46Z</time>
      </trkpt>
      <trkpt lat="47.26137" lon="5.08147">
        <ele>215.9</ele>
        <time>2015-12-15T13:01:53Z</time>
      </trkpt>
      <trkpt lat="47.2613" lon="5.08156">
        <ele>215.9</ele>
        <time>2015-12-15T13:02:01Z</time>
      </trkpt>
      <trkpt lat="47.26123" lon="5.08166">
        <ele>216</ele>
        <time>2015-12-15T13:02:09Z</time>
      </trkpt>
      <trkpt lat="47.26115" lon="5.08174">
        <ele>216.1</ele>
        <time>2015-12-15T13:02:16Z</time>
      </trkpt>
      <trkpt lat="47.26108" lon="5.08182">
        <ele>216.2</ele>
        <time>2015-12-15T13:02:23Z</time>
      </trkpt>
      <trkpt lat="47.261" lon="5.08191">
        <ele>216.3</ele>
        <time>2015-12-15T13:02:31Z</time>
      </trkpt>
      <trkpt lat="47.26093" lon="5.08202">
        <ele>216.4</ele>
        <time>2015-12-15T13:02:39Z</time>
      </trkpt>
      <trkpt lat="47.26085" lon="5.08212">
        <ele>216.5</ele>
        <time>2015-12-15T13:02:47Z</time>
      </trkpt>
      <trkpt lat="47.2608" lon="5.08224">
        <ele>216.7</ele>
        <time>2015-12-15T13:02:55Z</time>
      </trkpt>
      <trkpt lat="47.26078" lon="5.08237">
        <ele>216.8</ele>
        <time>2015-12-15T13:03:03Z</time>
      </trkpt>
      <trkpt lat="47.26074" lon="5.0825">
        <ele>217</ele>
        <time>2015-12-15T13:03:11Z</time>
      </trkpt>
      <trkpt lat="47.26068" lon="5.08261">
        <ele>216.9</ele>
        <time>2015-12-15T13:03:18Z</time>
      </trkpt>
      <trkpt lat="47.26062" lon="5.08271">
        <ele>216.7</ele>
        <time>2015-12-15T13:03:25Z</time>
      </trkpt>
      <trkpt lat="47.26054" lon="5.0828">
        <ele>216.5</ele>
        <time>2015-12-15T13:03:33Z</time>
      </trkpt>
      <trkpt lat="47.26048" lon="5.0829">
        <ele>216.3</ele>
        <time>2015-12-15T13:03:41Z</time>
      </trkpt>
      <trkpt lat="47.26039" lon="5.08298">
        <ele>216.1</ele>
        <time>2015-12-15T13:03:49Z</time>
      </trkpt>
      <trkpt lat="47.26031" lon="5.08306">
        <ele>215.9</ele>
        <time>2015-12-15T13:03:56Z</time>
      </trkpt>
      <trkpt lat="47.26024" lon="5.08315">
        <ele>215.7</ele>
        <time>2015-12-15T13:04:04Z</time>
      </trkpt>
      <trkpt lat="47.26017" lon="5.08324">
        <ele>215.4</ele>
        <time>2015-12-15T13:04:12Z</time>
      </trkpt>
      <trkpt lat="47.26009" lon="5.08333">
        <ele>215.1</ele>
        <time>2015-12-15T13:04:20Z</time>
      </trkpt>
      <trkpt lat="47.26" lon="5.08342">
        <ele>215.1</ele>
        <time>2015-12-15T13:04:28Z</time>
      </trkpt>
      <trkpt lat="47.25993" lon="5.0835">
        <ele>215.4</ele>
        <time>2015-12-15T13:04:36Z</time>
      </trkpt>
      <trkpt lat="47.25986" lon="5.08361">
        <ele>215.6</ele>
        <time>2015-12-15T13:04:43Z</time>
      </trkpt>
      <trkpt lat="47.25979" lon="5.08371">
        <ele>215.8</ele>
        <time>2015-12-15T13:04:52Z</time>
      </trkpt>
      <trkpt lat="47.25983" lon="5.08384">
        <ele>215.9</ele>
        <time>2015-12-15T13:05:02Z</time>
      </trkpt>
      <trkpt lat="47.25994" lon="5.0839">
        <ele>215.8</ele>
        <time>2015-12-15T13:05:09Z</time>
      </trkpt>
      <trkpt lat="47.26002" lon="5.08397">
        <ele>215.8</ele>
        <time>2015-12-15T13:05:15Z</time>
      </trkpt>
      <trkpt lat="47.2601" lon="5.08405">
        <ele>215.9</ele>
        <time>2015-12-15T13:05:22Z</time>
      </trkpt>
      <trkpt lat="47.26018" lon="5.08415">
        <ele>216</ele>
        <time>2015-12-15T13:05:30Z</time>
      </trkpt>
      <trkpt lat="47.26025" lon="5.08422">
        <ele>216</ele>
        <time>2015-12-15T13:05:37Z</time>
      </trkpt>
      <trkpt lat="47.26033" lon="5.08431">
        <ele>215.9</ele>
        <time>2015-12-15T13:05:44Z</time>
      </trkpt>
      <trkpt lat="47.2604" lon="5.08439">
        <ele>215.9</ele>
        <time>2015-12-15T13:05:51Z</time>
      </trkpt>
      <trkpt lat="47.26048" lon="5.08447">
        <ele>215.8</ele>
        <time>2015-12-15T13:05:57Z</time>
      </trkpt>
      <trkpt lat="47.26056" lon="5.08454">
        <ele>215.7</ele>
        <time>2015-12-15T13:06:04Z</time>
      </trkpt>
      <trkpt lat="47.26065" lon="5.08463">
        <ele>215.6</ele>
        <time>2015-12-15T13:06:11Z</time>
      </trkpt>
      <trkpt lat="47.26073" lon="5.08471">
        <ele>215.4</ele>
        <time>2015-12-15T13:06:17Z</time>
      </trkpt>
      <trkpt lat="47.2608" lon="5.08479">
        <ele>215.3</ele>
        <time>2015-12-15T13:06:24Z</time>
      </trkpt>
      <trkpt lat="47.26089" lon="5.08487">
        <ele>215.1</ele>
        <time>2015-12-15T13:06:35Z</time>
      </trkpt>
      <trkpt lat="47.26096" lon="5.08495">
        <ele>214.9</ele>
        <time>2015-12-15T13:06:43Z</time>
      </trkpt>
      <trkpt lat="47.26103" lon="5.08504">
        <ele>214.8</ele>
        <time>2015-12-15T13:06:49Z</time>
      </trkpt>
      <trkpt lat="47.26112" lon="5.08511">
        <ele>214.7</ele>
        <time>2015-12-15T13:06:57Z</time>
      </trkpt>
      <trkpt lat="47.26119" lon="5.08519">
        <ele>214.7</ele>
        <time>2015-12-15T13:07:04Z</time>
      </trkpt>
      <trkpt lat="47.26126" lon="5.08529">
        <ele>214.7</ele>
        <time>2015-12-15T13:07:12Z</time>
      </trkpt>
      <trkpt lat="47.26132" lon="5.08539">
        <ele>214.7</ele>
        <time>2015-12-15T13:07:22Z</time>
      </trkpt>
      <trkpt lat="47.26139" lon="5.08548">
        <ele>214.7</ele>
        <time>2015-12-15T13:07:32Z</time>
      </trkpt>
      <trkpt lat="47.26146" lon="5.08557">
        <ele>214.8</ele>
        <time>2015-12-15T13:07:40Z</time>
      </trkpt>
      <trkpt lat="47.26153" lon="5.08566">
        <ele>214.8</ele>
        <time>2015-12-15T13:07:48Z</time>
      </trkpt>
      <trkpt lat="47.26161" lon="5.08574">
        <ele>214.9</ele>
        <time>2015-12-15T13:07:55Z</time>
      </trkpt>
      <trkpt lat="47.26168" lon="5.08582">
        <ele>215</ele>
        <time>2015-12-15T13:08:02Z</time>
      </trkpt>
      <trkpt lat="47.26176" lon="5.08591">
        <ele>215.3</ele>
        <time>2015-12-15T13:08:11Z</time>
      </trkpt>
      <trkpt lat="47.26184" lon="5.08599">
        <ele>215.5</ele>
        <time>2015-12-15T13:08:16Z</time>
      </trkpt>
      <trkpt lat="47.26191" lon="5.08607">
        <ele>215.7</ele>
        <time>2015-12-15T13:08:23Z</time>
      </trkpt>
      <trkpt lat="47.26199" lon="5.08615">
        <ele>215.9</ele>
        <time>2015-12-15T13:08:31Z</time>
      </trkpt>
      <trkpt lat="47.26207" lon="5.08622">
        <ele>216</ele>
        <time>2015-12-15T13:08:37Z</time>
      </trkpt>
      <trkpt lat="47.26215" lon="5.0863">
        <ele>216.1</ele>
        <time>2015-12-15T13:08:45Z</time>
      </trkpt>
      <trkpt lat="47.26223" lon="5.08639">
        <ele>216.1</ele>
        <time>2015-12-15T13:08:53Z</time>
      </trkpt>
      <trkpt lat="47.26231" lon="5.08647">
        <ele>216.1</ele>
        <time>2015-12-15T13:09:02Z</time>
      </trkpt>
      <trkpt lat="47.26239" lon="5.08655">
        <ele>216.1</ele>
        <time>2015-12-15T13:09:09Z</time>
      </trkpt>
      <trkpt lat="47.26244" lon="5.08667">
        <ele>216</ele>
        <time>2015-12-15T13:09:21Z</time>
      </trkpt>
      <trkpt lat="47.26251" lon="5.08676">
        <ele>215.7</ele>
        <time>2015-12-15T13:09:28Z</time>
      </trkpt>
      <trkpt lat="47.26259" lon="5.08684">
        <ele>215.5</ele>
        <time>2015-12-15T13:09:36Z</time>
      </trkpt>
      <trkpt lat="47.26267" lon="5.08693">
        <ele>215.4</ele>
        <time>2015-12-15T13:09:43Z</time>
      </trkpt>
      <trkpt lat="47.26275" lon="5.08701">
        <ele>215.3</ele>
        <time>2015-12-15T13:09:49Z</time>
      </trkpt>
      <trkpt lat="47.26284" lon="5.0871">
        <ele>215.3</ele>
        <time>2015-12-15T13:09:57Z</time>
      </trkpt>
      <trkpt lat="47.26291" lon="5.08717">
        <ele>215.3</ele>
        <time>2015-12-15T13:10:03Z</time>
      </trkpt>
      <trkpt lat="47.26298" lon="5.08726">
        <ele>215.3</ele>
        <time>2015-12-15T13:10:11Z</time>
      </trkpt>
      <trkpt lat="47.26306" lon="5.08734">
        <ele>215.3</ele>
        <time>2015-12-15T13:10:17Z</time>
      </trkpt>
      <trkpt lat="47.26312" lon="5.08745">
        <ele>215.3</ele>
        <time>2015-12-15T13:10:30Z</time>
      </trkpt>
      <trkpt lat="47.2632" lon="5.08753">
        <ele>215.6</ele>
        <time>2015-12-15T13:10:37Z</time>
      </trkpt>
      <trkpt lat="47.26322" lon="5.08768">
        <ele>216</ele>
        <time>2015-12-15T13:10:45Z</time>
      </trkpt>
      <trkpt lat="47.26322" lon="5.08782">
        <ele>216.3</ele>
        <time>2015-12-15T13:10:53Z</time>
      </trkpt>
      <trkpt lat="47.26319" lon="5.08796">
        <ele>216.5</ele>
        <time>2015-12-15T13:11:01Z</time>
      </trkpt>
      <trkpt lat="47.26319" lon="5.0881">
        <ele>216.8</ele>
        <time>2015-12-15T13:11:11Z</time>
      </trkpt>
      <trkpt lat="47.26316" lon="5.08824">
        <ele>216.9</ele>
        <time>2015-12-15T13:11:19Z</time>
      </trkpt>
      <trkpt lat="47.26313" lon="5.08836">
        <ele>217</ele>
        <time>2015-12-15T13:11:26Z</time>
      </trkpt>
      <trkpt lat="47.2631" lon="5.0885">
        <ele>216.8</ele>
        <time>2015-12-15T13:11:38Z</time>
      </trkpt>
      <trkpt lat="47.26305" lon="5.08863">
        <ele>216.5</ele>
        <time>2015-12-15T13:11:45Z</time>
      </trkpt>
      <trkpt lat="47.263" lon="5.08874">
        <ele>216.3</ele>
        <time>2015-12-15T13:11:51Z</time>
      </trkpt>
      <trkpt lat="47.26294" lon="5.08885">
        <ele>216.1</ele>
        <time>2015-12-15T13:11:57Z</time>
      </trkpt>
      <trkpt lat="47.26288" lon="5.08896">
        <ele>215.9</ele>
        <time>2015-12-15T13:12:03Z</time>
      </trkpt>
      <trkpt lat="47.26282" lon="5.08906">
        <ele>215.7</ele>
        <time>2015-12-15T13:12:09Z</time>
      </trkpt>
      <trkpt lat="47.26275" lon="5.08916">
        <ele>215.6</ele>
        <time>2015-12-15T13:12:15Z</time>
      </trkpt>
      <trkpt lat="47.26269" lon="5.08925">
        <ele>215.5</ele>
        <time>2015-12-15T13:12:21Z</time>
      </trkpt>
      <trkpt lat="47.26262" lon="5.08934">
        <ele>215.4</ele>
        <time>2015-12-15T13:12:27Z</time>
      </trkpt>
      <trkpt lat="47.26255" lon="5.08944">
        <ele>215.4</ele>
        <time>2015-12-15T13:12:33Z</time>
      </trkpt>
      <trkpt lat="47.26248" lon="5.08955">
        <ele>215.5</ele>
        <time>2015-12-15T13:12:40Z</time>
      </trkpt>
      <trkpt lat="47.2624" lon="5.08964">
        <ele>215.6</ele>
        <time>2015-12-15T13:12:46Z</time>
      </trkpt>
      <trkpt lat="47.26233" lon="5.08974">
        <ele>215.7</ele>
        <time>2015-12-15T13:12:53Z</time>
      </trkpt>
      <trkpt lat="47.26225" lon="5.08983">
        <ele>215.8</ele>
        <time>2015-12-15T13:13:00Z</time>
      </trkpt>
      <trkpt lat="47.26218" lon="5.08992">
        <ele>215.9</ele>
        <time>2015-12-15T13:13:07Z</time>
      </trkpt>
      <trkpt lat="47.2621" lon="5.09001">
        <ele>216</ele>
        <time>2015-12-15T13:13:14Z</time>
      </trkpt>
      <trkpt lat="47.26203" lon="5.09011">
        <ele>216.1</ele>
        <time>2015-12-15T13:13:22Z</time>
      </trkpt>
      <trkpt lat="47.26195" lon="5.09021">
        <ele>216.2</ele>
        <time>2015-12-15T13:13:30Z</time>
      </trkpt>
      <trkpt lat="47.26188" lon="5.0903">
        <ele>216.3</ele>
        <time>2015-12-15T13:13:38Z</time>
      </trkpt>
      <trkpt lat="47.26181" lon="5.09038">
        <ele>216.4</ele>
        <time>2015-12-15T13:13:45Z</time>
      </trkpt>
      <trkpt lat="47.26173" lon="5.09048">
        <ele>216.5</ele>
        <time>2015-12-15T13:13:53Z</time>
      </trkpt>
      <trkpt lat="47.26165" lon="5.09056">
        <ele>216.6</ele>
        <time>2015-12-15T13:14:01Z</time>
      </trkpt>
      <trkpt lat="47.26158" lon="5.09065">
        <ele>216.5</ele>
        <time>2015-12-15T13:14:14Z</time>
      </trkpt>
      <trkpt lat="47.26151" lon="5.09074">
        <ele>216.3</ele>
        <time>2015-12-15T13:14:24Z</time>
      </trkpt>
      <trkpt lat="47.26144" lon="5.09083">
        <ele>216.2</ele>
        <time>2015-12-15T13:14:35Z</time>
      </trkpt>
      <trkpt lat="47.26137" lon="5.09092">
        <ele>215.9</ele>
        <time>2015-12-15T13:14:45Z</time>
      </trkpt>
      <trkpt lat="47.2613" lon="5.09102">
        <ele>215.6</ele>
        <time>2015-12-15T13:14:57Z</time>
      </trkpt>
      <trkpt lat="47.26122" lon="5.09111">
        <ele>215.2</ele>
        <time>2015-12-15T13:15:06Z</time>
      </trkpt>
      <trkpt lat="47.26115" lon="5.0912">
        <ele>215</ele>
        <time>2015-12-15T13:15:14Z</time>
      </trkpt>
      <trkpt lat="47.26108" lon="5.09129">
        <ele>214.7</ele>
        <time>2015-12-15T13:15:21Z</time>
      </trkpt>
      <trkpt lat="47.26101" lon="5.09137">
        <ele>214.5</ele>
        <time>2015-12-15T13:15:28Z</time>
      </trkpt>
      <trkpt lat="47.26094" lon="5.09147">
        <ele>214.3</ele>
        <time>2015-12-15T13:15:36Z</time>
      </trkpt>
      <trkpt lat="47.26086" lon="5.09155">
        <ele>214.1</ele>
        <time>2015-12-15T13:15:44Z</time>
      </trkpt>
      <trkpt lat="47.26079" lon="5.09163">
        <ele>214.1</ele>
        <time>2015-12-15T13:15:51Z</time>
      </trkpt>
      <trkpt lat="47.26072" lon="5.09172">
        <ele>214.5</ele>
        <time>2015-12-15T13:15:57Z</time>
      </trkpt>
      <trkpt lat="47.26064" lon="5.0918">
        <ele>214.9</ele>
        <time>2015-12-15T13:16:04Z</time>
      </trkpt>
      <trkpt lat="47.26056" lon="5.09188">
        <ele>215.1</ele>
        <time>2015-12-15T13:16:13Z</time>
      </trkpt>
      <trkpt lat="47.26049" lon="5.09197">
        <ele>215.4</ele>
        <time>2015-12-15T13:16:21Z</time>
      </trkpt>
      <trkpt lat="47.26041" lon="5.09206">
        <ele>215.5</ele>
        <time>2015-12-15T13:16:30Z</time>
      </trkpt>
      <trkpt lat="47.26033" lon="5.09215">
        <ele>215.6</ele>
        <time>2015-12-15T13:16:37Z</time>
      </trkpt>
      <trkpt lat="47.26025" lon="5.09222">
        <ele>215.6</ele>
        <time>2015-12-15T13:16:44Z</time>
      </trkpt>
      <trkpt lat="47.26017" lon="5.09229">
        <ele>215.5</ele>
        <time>2015-12-15T13:16:51Z</time>
      </trkpt>
      <trkpt lat="47.26008" lon="5.09233">
        <ele>215.4</ele>
        <time>2015-12-15T13:16:59Z</time>
      </trkpt>
      <trkpt lat="47.25998" lon="5.09234">
        <ele>215.4</ele>
        <time>2015-12-15T13:17:07Z</time>
      </trkpt>
      <trkpt lat="47.25988" lon="5.09235">
        <ele>215.3</ele>
        <time>2015-12-15T13:17:16Z</time>
      </trkpt>
      <trkpt lat="47.25978" lon="5.09236">
        <ele>215.2</ele>
        <time>2015-12-15T13:17:24Z</time>
      </trkpt>
      <trkpt lat="47.25969" lon="5.09238">
        <ele>215.1</ele>
        <time>2015-12-15T13:17:32Z</time>
      </trkpt>
      <trkpt lat="47.25959" lon="5.0924">
        <ele>215.1</ele>
        <time>2015-12-15T13:17:40Z</time>
      </trkpt>
      <trkpt lat="47.25949" lon="5.09242">
        <ele>215</ele>
        <time>2015-12-15T13:17:48Z</time>
      </trkpt>
      <trkpt lat="47.2594" lon="5.09242">
        <ele>215</ele>
        <time>2015-12-15T13:17:55Z</time>
      </trkpt>
      <trkpt lat="47.2593" lon="5.09244">
        <ele>215</ele>
        <time>2015-12-15T13:18:03Z</time>
      </trkpt>
      <trkpt lat="47.25921" lon="5.09244">
        <ele>214.9</ele>
        <time>2015-12-15T13:18:11Z</time>
      </trkpt>
      <trkpt lat="47.25912" lon="5.09245">
        <ele>214.8</ele>
        <time>2015-12-15T13:18:19Z</time>
      </trkpt>
      <trkpt lat="47.25902" lon="5.09247">
        <ele>214.4</ele>
        <time>2015-12-15T13:18:28Z</time>
      </trkpt>
      <trkpt lat="47.25892" lon="5.09248">
        <ele>214.1</ele>
        <time>2015-12-15T13:18:36Z</time>
      </trkpt>
      <trkpt lat="47.25882" lon="5.0925">
        <ele>213.8</ele>
        <time>2015-12-15T13:18:44Z</time>
      </trkpt>
      <trkpt lat="47.25873" lon="5.0925">
        <ele>213.4</ele>
        <time>2015-12-15T13:18:51Z</time>
      </trkpt>
      <trkpt lat="47.25863" lon="5.09251">
        <ele>213.1</ele>
        <time>2015-12-15T13:18:59Z</time>
      </trkpt>
      <trkpt lat="47.25853" lon="5.09253">
        <ele>212.8</ele>
        <time>2015-12-15T13:19:06Z</time>
      </trkpt>
      <trkpt lat="47.25844" lon="5.09255">
        <ele>212.5</ele>
        <time>2015-12-15T13:19:14Z</time>
      </trkpt>
      <trkpt lat="47.25835" lon="5.09257">
        <ele>212.4</ele>
        <time>2015-12-15T13:19:22Z</time>
      </trkpt>
      <trkpt lat="47.25825" lon="5.09258">
        <ele>212.5</ele>
        <time>2015-12-15T13:19:30Z</time>
      </trkpt>
      <trkpt lat="47.25816" lon="5.0926">
        <ele>212.6</ele>
        <time>2015-12-15T13:19:38Z</time>
      </trkpt>
      <trkpt lat="47.25807" lon="5.0926">
        <ele>212.7</ele>
        <time>2015-12-15T13:19:45Z</time>
      </trkpt>
      <trkpt lat="47.25798" lon="5.09262">
        <ele>212.9</ele>
        <time>2015-12-15T13:19:52Z</time>
      </trkpt>
      <trkpt lat="47.25788" lon="5.09263">
        <ele>213</ele>
        <time>2015-12-15T13:20:00Z</time>
      </trkpt>
      <trkpt lat="47.25779" lon="5.09264">
        <ele>213.1</ele>
        <time>2015-12-15T13:20:08Z</time>
      </trkpt>
      <trkpt lat="47.25769" lon="5.09266">
        <ele>213.2</ele>
        <time>2015-12-15T13:20:16Z</time>
      </trkpt>
      <trkpt lat="47.2576" lon="5.09267">
        <ele>213.3</ele>
        <time>2015-12-15T13:20:25Z</time>
      </trkpt>
      <trkpt lat="47.2575" lon="5.09268">
        <ele>213.4</ele>
        <time>2015-12-15T13:20:32Z</time>
      </trkpt>
      <trkpt lat="47.25741" lon="5.09269">
        <ele>213.4</ele>
        <time>2015-12-15T13:20:39Z</time>
      </trkpt>
      <trkpt lat="47.25732" lon="5.0927">
        <ele>213.4</ele>
        <time>2015-12-15T13:20:46Z</time>
      </trkpt>
      <trkpt lat="47.25723" lon="5.09271">
        <ele>213.4</ele>
        <time>2015-12-15T13:20:53Z</time>
      </trkpt>
      <trkpt lat="47.25713" lon="5.09273">
        <ele>213.4</ele>
        <time>2015-12-15T13:21:01Z</time>
      </trkpt>
      <trkpt lat="47.25703" lon="5.09273">
        <ele>213.4</ele>
        <time>2015-12-15T13:21:10Z</time>
      </trkpt>
      <trkpt lat="47.25695" lon="5.09277">
        <ele>213.4</ele>
        <time>2015-12-15T13:21:19Z</time>
      </trkpt>
      <trkpt lat="47.25686" lon="5.09271">
        <ele>213.3</ele>
        <time>2015-12-15T13:24:25Z</time>
      </trkpt>
      <trkpt lat="47.25678" lon="5.09264">
        <ele>213.2</ele>
        <time>2015-12-15T13:24:33Z</time>
      </trkpt>
      <trkpt lat="47.2567" lon="5.09255">
        <ele>213.1</ele>
        <time>2015-12-15T13:24:42Z</time>
      </trkpt>
      <trkpt lat="47.25662" lon="5.09247">
        <ele>213.1</ele>
        <time>2015-12-15T13:24:50Z</time>
      </trkpt>
      <trkpt lat="47.25655" lon="5.09238">
        <ele>213.2</ele>
        <time>2015-12-15T13:24:58Z</time>
      </trkpt>
      <trkpt lat="47.25647" lon="5.09229">
        <ele>213.4</ele>
        <time>2015-12-15T13:25:07Z</time>
      </trkpt>
      <trkpt lat="47.25639" lon="5.0922">
        <ele>213.5</ele>
        <time>2015-12-15T13:25:15Z</time>
      </trkpt>
      <trkpt lat="47.25632" lon="5.09211">
        <ele>213.5</ele>
        <time>2015-12-15T13:25:23Z</time>
      </trkpt>
      <trkpt lat="47.25625" lon="5.09202">
        <ele>213.5</ele>
        <time>2015-12-15T13:25:30Z</time>
      </trkpt>
      <trkpt lat="47.25617" lon="5.09195">
        <ele>213.5</ele>
        <time>2015-12-15T13:25:39Z</time>
      </trkpt>
      <trkpt lat="47.2561" lon="5.09186">
        <ele>213.4</ele>
        <time>2015-12-15T13:25:46Z</time>
      </trkpt>
      <trkpt lat="47.25604" lon="5.09177">
        <ele>213.3</ele>
        <time>2015-12-15T13:25:53Z</time>
      </trkpt>
      <trkpt lat="47.25596" lon="5.09169">
        <ele>213.2</ele>
        <time>2015-12-15T13:26:01Z</time>
      </trkpt>
      <trkpt lat="47.25588" lon="5.09159">
        <ele>213.1</ele>
        <time>2015-12-15T13:26:09Z</time>
      </trkpt>
      <trkpt lat="47.25582" lon="5.09149">
        <ele>213</ele>
        <time>2015-12-15T13:26:17Z</time>
      </trkpt>
      <trkpt lat="47.25574" lon="5.09141">
        <ele>213</ele>
        <time>2015-12-15T13:26:26Z</time>
      </trkpt>
      <trkpt lat="47.25566" lon="5.09133">
        <ele>213</ele>
        <time>2015-12-15T13:26:34Z</time>
      </trkpt>
      <trkpt lat="47.25558" lon="5.09124">
        <ele>213</ele>
        <time>2015-12-15T13:26:42Z</time>
      </trkpt>
      <trkpt lat="47.2555" lon="5.09115">
        <ele>213</ele>
        <time>2015-12-15T13:26:50Z</time>
      </trkpt>
      <trkpt lat="47.25542" lon="5.09106">
        <ele>213</ele>
        <time>2015-12-15T13:26:58Z</time>
      </trkpt>
      <trkpt lat="47.25535" lon="5.09097">
        <ele>213</ele>
        <time>2015-12-15T13:27:06Z</time>
      </trkpt>
      <trkpt lat="47.25527" lon="5.09088">
        <ele>213</ele>
        <time>2015-12-15T13:27:14Z</time>
      </trkpt>
      <trkpt lat="47.2552" lon="5.09078">
        <ele>213</ele>
        <time>2015-12-15T13:27:22Z</time>
      </trkpt>
      <trkpt lat="47.25511" lon="5.09069">
        <ele>213</ele>
        <time>2015-12-15T13:27:31Z</time>
      </trkpt>
      <trkpt lat="47.25504" lon="5.0906">
        <ele>213</ele>
        <time>2015-12-15T13:27:39Z</time>
      </trkpt>
      <trkpt lat="47.25495" lon="5.09052">
        <ele>213.1</ele>
        <time>2015-12-15T13:27:49Z</time>
      </trkpt>
      <trkpt lat="47.25487" lon="5.09057">
        <ele>213.2</ele>
        <time>2015-12-15T13:27:58Z</time>
      </trkpt>
      <trkpt lat="47.25479" lon="5.09065">
        <ele>213.3</ele>
        <time>2015-12-15T13:28:06Z</time>
      </trkpt>
      <trkpt lat="47.25471" lon="5.09074">
        <ele>213.4</ele>
        <time>2015-12-15T13:28:15Z</time>
      </trkpt>
      <trkpt lat="47.25462" lon="5.09082">
        <ele>213.5</ele>
        <time>2015-12-15T13:28:23Z</time>
      </trkpt>
      <trkpt lat="47.25453" lon="5.09087">
        <ele>213.5</ele>
        <time>2015-12-15T13:28:31Z</time>
      </trkpt>
      <trkpt lat="47.25444" lon="5.09093">
        <ele>213.6</ele>
        <time>2015-12-15T13:28:39Z</time>
      </trkpt>
      <trkpt lat="47.25436" lon="5.09098">
        <ele>213.6</ele>
        <time>2015-12-15T13:28:47Z</time>
      </trkpt>
      <trkpt lat="47.25427" lon="5.09106">
        <ele>213.6</ele>
        <time>2015-12-15T13:28:55Z</time>
      </trkpt>
      <trkpt lat="47.2542" lon="5.09113">
        <ele>213.6</ele>
        <time>2015-12-15T13:29:03Z</time>
      </trkpt>
      <trkpt lat="47.25413" lon="5.09124">
        <ele>213.5</ele>
        <time>2015-12-15T13:29:12Z</time>
      </trkpt>
      <trkpt lat="47.25407" lon="5.09135">
        <ele>213.3</ele>
        <time>2015-12-15T13:29:21Z</time>
      </trkpt>
      <trkpt lat="47.25402" lon="5.09147">
        <ele>213.1</ele>
        <time>2015-12-15T13:29:29Z</time>
      </trkpt>
      <trkpt lat="47.25396" lon="5.09159">
        <ele>212.8</ele>
        <time>2015-12-15T13:29:37Z</time>
      </trkpt>
      <trkpt lat="47.25391" lon="5.09171">
        <ele>212.6</ele>
        <time>2015-12-15T13:29:45Z</time>
      </trkpt>
      <trkpt lat="47.25386" lon="5.09185">
        <ele>212.4</ele>
        <time>2015-12-15T13:29:53Z</time>
      </trkpt>
      <trkpt lat="47.25381" lon="5.09197">
        <ele>212.2</ele>
        <time>2015-12-15T13:30:01Z</time>
      </trkpt>
      <trkpt lat="47.25377" lon="5.0921">
        <ele>212</ele>
        <time>2015-12-15T13:30:09Z</time>
      </trkpt>
      <trkpt lat="47.25372" lon="5.09222">
        <ele>211.8</ele>
        <time>2015-12-15T13:30:17Z</time>
      </trkpt>
      <trkpt lat="47.25368" lon="5.09233">
        <ele>211.6</ele>
        <time>2015-12-15T13:30:24Z</time>
      </trkpt>
      <trkpt lat="47.25363" lon="5.09246">
        <ele>211.4</ele>
        <time>2015-12-15T13:30:32Z</time>
      </trkpt>
      <trkpt lat="47.25358" lon="5.09259">
        <ele>211.4</ele>
        <time>2015-12-15T13:30:40Z</time>
      </trkpt>
      <trkpt lat="47.25354" lon="5.09271">
        <ele>211.5</ele>
        <time>2015-12-15T13:30:48Z</time>
      </trkpt>
      <trkpt lat="47.25349" lon="5.09283">
        <ele>211.6</ele>
        <time>2015-12-15T13:30:55Z</time>
      </trkpt>
      <trkpt lat="47.25344" lon="5.09296">
        <ele>211.7</ele>
        <time>2015-12-15T13:31:03Z</time>
      </trkpt>
      <trkpt lat="47.2534" lon="5.09308">
        <ele>211.8</ele>
        <time>2015-12-15T13:31:11Z</time>
      </trkpt>
      <trkpt lat="47.25335" lon="5.0932">
        <ele>211.8</ele>
        <time>2015-12-15T13:31:19Z</time>
      </trkpt>
      <trkpt lat="47.2533" lon="5.09332">
        <ele>211.9</ele>
        <time>2015-12-15T13:31:27Z</time>
      </trkpt>
      <trkpt lat="47.25325" lon="5.09345">
        <ele>211.9</ele>
        <time>2015-12-15T13:31:35Z</time>
      </trkpt>
      <trkpt lat="47.25321" lon="5.09356">
        <ele>211.8</ele>
        <time>2015-12-15T13:31:43Z</time>
      </trkpt>
      <trkpt lat="47.25315" lon="5.09368">
        <ele>211.8</ele>
        <time>2015-12-15T13:31:51Z</time>
      </trkpt>
      <trkpt lat="47.25312" lon="5.09381">
        <ele>211.7</ele>
        <time>2015-12-15T13:31:59Z</time>
      </trkpt>
      <trkpt lat="47.25307" lon="5.09394">
        <ele>211.7</ele>
        <time>2015-12-15T13:32:07Z</time>
      </trkpt>
      <trkpt lat="47.25301" lon="5.09406">
        <ele>211.6</ele>
        <time>2015-12-15T13:32:15Z</time>
      </trkpt>
      <trkpt lat="47.25295" lon="5.09417">
        <ele>211.5</ele>
        <time>2015-12-15T13:32:27Z</time>
      </trkpt>
      <trkpt lat="47.25291" lon="5.09428">
        <ele>211.4</ele>
        <time>2015-12-15T13:32:33Z</time>
      </trkpt>
      <trkpt lat="47.25285" lon="5.09439">
        <ele>211.3</ele>
        <time>2015-12-15T13:32:45Z</time>
      </trkpt>
      <trkpt lat="47.25279" lon="5.09449">
        <ele>211.2</ele>
        <time>2015-12-15T13:32:53Z</time>
      </trkpt>
      <trkpt lat="47.25273" lon="5.09459">
        <ele>211.1</ele>
        <time>2015-12-15T13:33:00Z</time>
      </trkpt>
      <trkpt lat="47.25267" lon="5.0947">
        <ele>211.1</ele>
        <time>2015-12-15T13:33:08Z</time>
      </trkpt>
      <trkpt lat="47.25261" lon="5.0948">
        <ele>211</ele>
        <time>2015-12-15T13:33:16Z</time>
      </trkpt>
      <trkpt lat="47.25256" lon="5.09491">
        <ele>211</ele>
        <time>2015-12-15T13:33:24Z</time>
      </trkpt>
      <trkpt lat="47.2525" lon="5.09503">
        <ele>211</ele>
        <time>2015-12-15T13:33:32Z</time>
      </trkpt>
      <trkpt lat="47.25245" lon="5.09514">
        <ele>211.2</ele>
        <time>2015-12-15T13:33:39Z</time>
      </trkpt>
      <trkpt lat="47.25239" lon="5.09526">
        <ele>211.4</ele>
        <time>2015-12-15T13:33:46Z</time>
      </trkpt>
      <trkpt lat="47.25234" lon="5.09537">
        <ele>211.6</ele>
        <time>2015-12-15T13:33:53Z</time>
      </trkpt>
      <trkpt lat="47.25228" lon="5.09548">
        <ele>211.8</ele>
        <time>2015-12-15T13:34:00Z</time>
      </trkpt>
      <trkpt lat="47.25222" lon="5.09559">
        <ele>212</ele>
        <time>2015-12-15T13:34:07Z</time>
      </trkpt>
      <trkpt lat="47.25217" lon="5.0957">
        <ele>212.2</ele>
        <time>2015-12-15T13:34:14Z</time>
      </trkpt>
      <trkpt lat="47.25211" lon="5.09582">
        <ele>212.4</ele>
        <time>2015-12-15T13:34:22Z</time>
      </trkpt>
      <trkpt lat="47.25205" lon="5.09592">
        <ele>212.7</ele>
        <time>2015-12-15T13:34:29Z</time>
      </trkpt>
      <trkpt lat="47.25199" lon="5.09603">
        <ele>213</ele>
        <time>2015-12-15T13:34:37Z</time>
      </trkpt>
      <trkpt lat="47.25193" lon="5.09614">
        <ele>213.3</ele>
        <time>2015-12-15T13:34:44Z</time>
      </trkpt>
      <trkpt lat="47.25189" lon="5.09626">
        <ele>213.6</ele>
        <time>2015-12-15T13:34:51Z</time>
      </trkpt>
      <trkpt lat="47.25184" lon="5.09639">
        <ele>214</ele>
        <time>2015-12-15T13:34:59Z</time>
      </trkpt>
      <trkpt lat="47.2518" lon="5.09652">
        <ele>214.3</ele>
        <time>2015-12-15T13:35:07Z</time>
      </trkpt>
      <trkpt lat="47.25174" lon="5.09664">
        <ele>214.8</ele>
        <time>2015-12-15T13:35:15Z</time>
      </trkpt>
      <trkpt lat="47.25168" lon="5.09675">
        <ele>214.7</ele>
        <time>2015-12-15T13:35:23Z</time>
      </trkpt>
      <trkpt lat="47.25161" lon="5.09687">
        <ele>214.1</ele>
        <time>2015-12-15T13:35:31Z</time>
      </trkpt>
      <trkpt lat="47.25154" lon="5.09698">
        <ele>213.5</ele>
        <time>2015-12-15T13:35:39Z</time>
      </trkpt>
      <trkpt lat="47.25148" lon="5.09708">
        <ele>213.1</ele>
        <time>2015-12-15T13:35:46Z</time>
      </trkpt>
      <trkpt lat="47.25141" lon="5.09718">
        <ele>212.7</ele>
        <time>2015-12-15T13:35:54Z</time>
      </trkpt>
      <trkpt lat="47.25135" lon="5.09728">
        <ele>212.4</ele>
        <time>2015-12-15T13:36:01Z</time>
      </trkpt>
      <trkpt lat="47.25129" lon="5.09739">
        <ele>212.2</ele>
        <time>2015-12-15T13:36:08Z</time>
      </trkpt>
      <trkpt lat="47.25123" lon="5.09749">
        <ele>212</ele>
        <time>2015-12-15T13:36:15Z</time>
      </trkpt>
      <trkpt lat="47.25118" lon="5.09762">
        <ele>211.8</ele>
        <time>2015-12-15T13:36:22Z</time>
      </trkpt>
      <trkpt lat="47.25112" lon="5.09773">
        <ele>211.6</ele>
        <time>2015-12-15T13:36:30Z</time>
      </trkpt>
      <trkpt lat="47.25107" lon="5.09784">
        <ele>211.5</ele>
        <time>2015-12-15T13:36:37Z</time>
      </trkpt>
      <trkpt lat="47.25101" lon="5.09795">
        <ele>211.3</ele>
        <time>2015-12-15T13:36:44Z</time>
      </trkpt>
      <trkpt lat="47.25096" lon="5.09806">
        <ele>211.2</ele>
        <time>2015-12-15T13:36:51Z</time>
      </trkpt>
      <trkpt lat="47.2509" lon="5.09818">
        <ele>211.1</ele>
        <time>2015-12-15T13:36:59Z</time>
      </trkpt>
      <trkpt lat="47.25085" lon="5.09829">
        <ele>211</ele>
        <time>2015-12-15T13:37:06Z</time>
      </trkpt>
      <trkpt lat="47.25078" lon="5.0984">
        <ele>211</ele>
        <time>2015-12-15T13:37:14Z</time>
      </trkpt>
      <trkpt lat="47.25073" lon="5.09851">
        <ele>211.1</ele>
        <time>2015-12-15T13:37:21Z</time>
      </trkpt>
      <trkpt lat="47.25066" lon="5.09862">
        <ele>211.1</ele>
        <time>2015-12-15T13:37:28Z</time>
      </trkpt>
      <trkpt lat="47.2506" lon="5.09873">
        <ele>211.2</ele>
        <time>2015-12-15T13:37:36Z</time>
      </trkpt>
      <trkpt lat="47.25053" lon="5.09885">
        <ele>211.2</ele>
        <time>2015-12-15T13:37:44Z</time>
      </trkpt>
      <trkpt lat="47.25048" lon="5.09896">
        <ele>211.3</ele>
        <time>2015-12-15T13:37:51Z</time>
      </trkpt>
      <trkpt lat="47.25042" lon="5.09907">
        <ele>211.4</ele>
        <time>2015-12-15T13:37:59Z</time>
      </trkpt>
      <trkpt lat="47.25037" lon="5.09918">
        <ele>211.4</ele>
        <time>2015-12-15T13:38:06Z</time>
      </trkpt>
      <trkpt lat="47.25031" lon="5.0993">
        <ele>211.2</ele>
        <time>2015-12-15T13:38:14Z</time>
      </trkpt>
      <trkpt lat="47.25025" lon="5.09941">
        <ele>211</ele>
        <time>2015-12-15T13:38:22Z</time>
      </trkpt>
      <trkpt lat="47.25019" lon="5.09953">
        <ele>210.8</ele>
        <time>2015-12-15T13:38:30Z</time>
      </trkpt>
      <trkpt lat="47.25018" lon="5.09967">
        <ele>210.6</ele>
        <time>2015-12-15T13:38:37Z</time>
      </trkpt>
      <trkpt lat="47.25022" lon="5.09981">
        <ele>210.5</ele>
        <time>2015-12-15T13:38:45Z</time>
      </trkpt>
      <trkpt lat="47.25029" lon="5.09988">
        <ele>210.5</ele>
        <time>2015-12-15T13:39:07Z</time>
      </trkpt>
      <trkpt lat="47.25037" lon="5.09996">
        <ele>210.5</ele>
        <time>2015-12-15T13:39:51Z</time>
      </trkpt>
      <trkpt lat="47.25044" lon="5.10004">
        <ele>210.5</ele>
        <time>2015-12-15T13:40:08Z</time>
      </trkpt>
      <trkpt lat="47.25052" lon="5.10011">
        <ele>210.4</ele>
        <time>2015-12-15T13:41:07Z</time>
      </trkpt>
      <trkpt lat="47.2506" lon="5.10018">
        <ele>210.4</ele>
        <time>2015-12-15T13:41:14Z</time>
      </trkpt>
      <trkpt lat="47.25068" lon="5.10025">
        <ele>210.3</ele>
        <time>2015-12-15T13:41:21Z</time>
      </trkpt>
      <trkpt lat="47.25076" lon="5.10033">
        <ele>210.2</ele>
        <time>2015-12-15T13:41:28Z</time>
      </trkpt>
      <trkpt lat="47.25083" lon="5.1004">
        <ele>210.1</ele>
        <time>2015-12-15T13:41:35Z</time>
      </trkpt>
      <trkpt lat="47.25092" lon="5.10047">
        <ele>210.1</ele>
        <time>2015-12-15T13:41:43Z</time>
      </trkpt>
      <trkpt lat="47.251" lon="5.10055">
        <ele>210.1</ele>
        <time>2015-12-15T13:41:50Z</time>
      </trkpt>
      <trkpt lat="47.25109" lon="5.10063">
        <ele>210.3</ele>
        <time>2015-12-15T13:41:58Z</time>
      </trkpt>
      <trkpt lat="47.25116" lon="5.10072">
        <ele>210.4</ele>
        <time>2015-12-15T13:42:05Z</time>
      </trkpt>
      <trkpt lat="47.25125" lon="5.10079">
        <ele>210.6</ele>
        <time>2015-12-15T13:42:12Z</time>
      </trkpt>
      <trkpt lat="47.25133" lon="5.10086">
        <ele>210.8</ele>
        <time>2015-12-15T13:42:19Z</time>
      </trkpt>
      <trkpt lat="47.25142" lon="5.10095">
        <ele>211</ele>
        <time>2015-12-15T13:42:27Z</time>
      </trkpt>
      <trkpt lat="47.25149" lon="5.10102">
        <ele>211.3</ele>
        <time>2015-12-15T13:42:34Z</time>
      </trkpt>
      <trkpt lat="47.25158" lon="5.10109">
        <ele>211.5</ele>
        <time>2015-12-15T13:42:42Z</time>
      </trkpt>
      <trkpt lat="47.25167" lon="5.10116">
        <ele>211.6</ele>
        <time>2015-12-15T13:42:50Z</time>
      </trkpt>
      <trkpt lat="47.25175" lon="5.10123">
        <ele>211.4</ele>
        <time>2015-12-15T13:42:57Z</time>
      </trkpt>
      <trkpt lat="47.25182" lon="5.10132">
        <ele>211.3</ele>
        <time>2015-12-15T13:43:04Z</time>
      </trkpt>
      <trkpt lat="47.2519" lon="5.10139">
        <ele>211.1</ele>
        <time>2015-12-15T13:43:12Z</time>
      </trkpt>
      <trkpt lat="47.25199" lon="5.10146">
        <ele>211.1</ele>
        <time>2015-12-15T13:43:21Z</time>
      </trkpt>
      <trkpt lat="47.25207" lon="5.10153">
        <ele>211</ele>
        <time>2015-12-15T13:43:30Z</time>
      </trkpt>
      <trkpt lat="47.25215" lon="5.1016">
        <ele>211</ele>
        <time>2015-12-15T13:43:38Z</time>
      </trkpt>
      <trkpt lat="47.25223" lon="5.10168">
        <ele>211</ele>
        <time>2015-12-15T13:43:47Z</time>
      </trkpt>
      <trkpt lat="47.25232" lon="5.1017">
        <ele>211</ele>
        <time>2015-12-15T13:44:30Z</time>
      </trkpt>
      <trkpt lat="47.2524" lon="5.10161">
        <ele>210.9</ele>
        <time>2015-12-15T13:44:41Z</time>
      </trkpt>
      <trkpt lat="47.25247" lon="5.10151">
        <ele>210.8</ele>
        <time>2015-12-15T13:44:51Z</time>
      </trkpt>
      <trkpt lat="47.25255" lon="5.10144">
        <ele>210.8</ele>
        <time>2015-12-15T13:45:00Z</time>
      </trkpt>
      <trkpt lat="47.25262" lon="5.10133">
        <ele>210.8</ele>
        <time>2015-12-15T13:45:10Z</time>
      </trkpt>
      <trkpt lat="47.25269" lon="5.10124">
        <ele>210.8</ele>
        <time>2015-12-15T13:45:19Z</time>
      </trkpt>
      <trkpt lat="47.25276" lon="5.10114">
        <ele>210.9</ele>
        <time>2015-12-15T13:45:28Z</time>
      </trkpt>
      <trkpt lat="47.25283" lon="5.10104">
        <ele>210.9</ele>
        <time>2015-12-15T13:45:37Z</time>
      </trkpt>
      <trkpt lat="47.2529" lon="5.10095">
        <ele>211</ele>
        <time>2015-12-15T13:45:45Z</time>
      </trkpt>
      <trkpt lat="47.25298" lon="5.10086">
        <ele>211.2</ele>
        <time>2015-12-15T13:45:52Z</time>
      </trkpt>
      <trkpt lat="47.25305" lon="5.10076">
        <ele>211.3</ele>
        <time>2015-12-15T13:46:00Z</time>
      </trkpt>
      <trkpt lat="47.25312" lon="5.10066">
        <ele>211.5</ele>
        <time>2015-12-15T13:46:09Z</time>
      </trkpt>
      <trkpt lat="47.2532" lon="5.10057">
        <ele>211.7</ele>
        <time>2015-12-15T13:46:17Z</time>
      </trkpt>
      <trkpt lat="47.25327" lon="5.10048">
        <ele>211.9</ele>
        <time>2015-12-15T13:46:24Z</time>
      </trkpt>
      <trkpt lat="47.25334" lon="5.1004">
        <ele>212</ele>
        <time>2015-12-15T13:46:31Z</time>
      </trkpt>
      <trkpt lat="47.25342" lon="5.10031">
        <ele>212</ele>
        <time>2015-12-15T13:46:39Z</time>
      </trkpt>
      <trkpt lat="47.2535" lon="5.10023">
        <ele>211.9</ele>
        <time>2015-12-15T13:46:47Z</time>
      </trkpt>
      <trkpt lat="47.25357" lon="5.10012">
        <ele>212</ele>
        <time>2015-12-15T13:46:56Z</time>
      </trkpt>
      <trkpt lat="47.25365" lon="5.10004">
        <ele>212</ele>
        <time>2015-12-15T13:47:04Z</time>
      </trkpt>
      <trkpt lat="47.25374" lon="5.10002">
        <ele>212</ele>
        <time>2015-12-15T13:47:12Z</time>
      </trkpt>
      <trkpt lat="47.25383" lon="5.10008">
        <ele>211.9</ele>
        <time>2015-12-15T13:47:19Z</time>
      </trkpt>
      <trkpt lat="47.25391" lon="5.10017">
        <ele>211.9</ele>
        <time>2015-12-15T13:47:26Z</time>
      </trkpt>
      <trkpt lat="47.25398" lon="5.10026">
        <ele>211.8</ele>
        <time>2015-12-15T13:47:33Z</time>
      </trkpt>
      <trkpt lat="47.25405" lon="5.10034">
        <ele>211.7</ele>
        <time>2015-12-15T13:47:41Z</time>
      </trkpt>
      <trkpt lat="47.25413" lon="5.10043">
        <ele>211.5</ele>
        <time>2015-12-15T13:47:50Z</time>
      </trkpt>
      <trkpt lat="47.25421" lon="5.10052">
        <ele>211.4</ele>
        <time>2015-12-15T13:47:58Z</time>
      </trkpt>
      <trkpt lat="47.25429" lon="5.10061">
        <ele>211.3</ele>
        <time>2015-12-15T13:48:06Z</time>
      </trkpt>
      <trkpt lat="47.25436" lon="5.10069">
        <ele>211.3</ele>
        <time>2015-12-15T13:48:14Z</time>
      </trkpt>
      <trkpt lat="47.25444" lon="5.1008">
        <ele>211.3</ele>
        <time>2015-12-15T13:48:22Z</time>
      </trkpt>
      <trkpt lat="47.2545" lon="5.1009">
        <ele>211.4</ele>
        <time>2015-12-15T13:48:29Z</time>
      </trkpt>
      <trkpt lat="47.25457" lon="5.10099">
        <ele>211.4</ele>
        <time>2015-12-15T13:48:36Z</time>
      </trkpt>
      <trkpt lat="47.25464" lon="5.10109">
        <ele>211.4</ele>
        <time>2015-12-15T13:48:44Z</time>
      </trkpt>
      <trkpt lat="47.25471" lon="5.10118">
        <ele>211.4</ele>
        <time>2015-12-15T13:48:52Z</time>
      </trkpt>
      <trkpt lat="47.25477" lon="5.10128">
        <ele>211.3</ele>
        <time>2015-12-15T13:48:59Z</time>
      </trkpt>
      <trkpt lat="47.25484" lon="5.10139">
        <ele>211.3</ele>
        <time>2015-12-15T13:49:07Z</time>
      </trkpt>
      <trkpt lat="47.25492" lon="5.10148">
        <ele>211.2</ele>
        <time>2015-12-15T13:49:15Z</time>
      </trkpt>
      <trkpt lat="47.25498" lon="5.10159">
        <ele>211.1</ele>
        <time>2015-12-15T13:49:23Z</time>
      </trkpt>
      <trkpt lat="47.25506" lon="5.10168">
        <ele>211.1</ele>
        <time>2015-12-15T13:49:31Z</time>
      </trkpt>
      <trkpt lat="47.25513" lon="5.10177">
        <ele>211.2</ele>
        <time>2015-12-15T13:49:39Z</time>
      </trkpt>
      <trkpt lat="47.25521" lon="5.10187">
        <ele>211.3</ele>
        <time>2015-12-15T13:49:47Z</time>
      </trkpt>
      <trkpt lat="47.25528" lon="5.10195">
        <ele>211.3</ele>
        <time>2015-12-15T13:49:55Z</time>
      </trkpt>
      <trkpt lat="47.25535" lon="5.10205">
        <ele>211.4</ele>
        <time>2015-12-15T13:50:03Z</time>
      </trkpt>
      <trkpt lat="47.25542" lon="5.10215">
        <ele>211.5</ele>
        <time>2015-12-15T13:50:10Z</time>
      </trkpt>
      <trkpt lat="47.25548" lon="5.10225">
        <ele>211.6</ele>
        <time>2015-12-15T13:50:17Z</time>
      </trkpt>
      <trkpt lat="47.25555" lon="5.10234">
        <ele>211.7</ele>
        <time>2015-12-15T13:50:24Z</time>
      </trkpt>
      <trkpt lat="47.25562" lon="5.10243">
        <ele>211.7</ele>
        <time>2015-12-15T13:50:32Z</time>
      </trkpt>
      <trkpt lat="47.25568" lon="5.10252">
        <ele>211.8</ele>
        <time>2015-12-15T13:50:39Z</time>
      </trkpt>
      <trkpt lat="47.25576" lon="5.10263">
        <ele>211.9</ele>
        <time>2015-12-15T13:50:47Z</time>
      </trkpt>
      <trkpt lat="47.25582" lon="5.10274">
        <ele>212</ele>
        <time>2015-12-15T13:50:54Z</time>
      </trkpt>
      <trkpt lat="47.2559" lon="5.10282">
        <ele>212</ele>
        <time>2015-12-15T13:51:02Z</time>
      </trkpt>
      <trkpt lat="47.25598" lon="5.10292">
        <ele>212.1</ele>
        <time>2015-12-15T13:51:11Z</time>
      </trkpt>
      <trkpt lat="47.25605" lon="5.10302">
        <ele>212.2</ele>
        <time>2015-12-15T13:51:18Z</time>
      </trkpt>
      <trkpt lat="47.25612" lon="5.10311">
        <ele>212.2</ele>
        <time>2015-12-15T13:51:26Z</time>
      </trkpt>
      <trkpt lat="47.25619" lon="5.1032">
        <ele>212.4</ele>
        <time>2015-12-15T13:51:34Z</time>
      </trkpt>
      <trkpt lat="47.25627" lon="5.1033">
        <ele>212.5</ele>
        <time>2015-12-15T13:51:42Z</time>
      </trkpt>
      <trkpt lat="47.25634" lon="5.1034">
        <ele>212.6</ele>
        <time>2015-12-15T13:51:50Z</time>
      </trkpt>
      <trkpt lat="47.2564" lon="5.1035">
        <ele>212.6</ele>
        <time>2015-12-15T13:51:58Z</time>
      </trkpt>
      <trkpt lat="47.25648" lon="5.10359">
        <ele>212.5</ele>
        <time>2015-12-15T13:52:07Z</time>
      </trkpt>
      <trkpt lat="47.25655" lon="5.10369">
        <ele>212.5</ele>
        <time>2015-12-15T13:52:15Z</time>
      </trkpt>
      <trkpt lat="47.2566" lon="5.1038">
        <ele>212.4</ele>
        <time>2015-12-15T13:52:22Z</time>
      </trkpt>
      <trkpt lat="47.2566" lon="5.10393">
        <ele>212.3</ele>
        <time>2015-12-15T13:52:30Z</time>
      </trkpt>
      <trkpt lat="47.25654" lon="5.10403">
        <ele>212.1</ele>
        <time>2015-12-15T13:52:38Z</time>
      </trkpt>
      <trkpt lat="47.25648" lon="5.10413">
        <ele>212</ele>
        <time>2015-12-15T13:52:46Z</time>
      </trkpt>
      <trkpt lat="47.25641" lon="5.10423">
        <ele>212</ele>
        <time>2015-12-15T13:52:54Z</time>
      </trkpt>
      <trkpt lat="47.25635" lon="5.10434">
        <ele>211.9</ele>
        <time>2015-12-15T13:53:02Z</time>
      </trkpt>
      <trkpt lat="47.25629" lon="5.10444">
        <ele>211.9</ele>
        <time>2015-12-15T13:53:10Z</time>
      </trkpt>
      <trkpt lat="47.25623" lon="5.10454">
        <ele>211.8</ele>
        <time>2015-12-15T13:53:17Z</time>
      </trkpt>
      <trkpt lat="47.25616" lon="5.10464">
        <ele>211.7</ele>
        <time>2015-12-15T13:53:25Z</time>
      </trkpt>
      <trkpt lat="47.25609" lon="5.10475">
        <ele>211.5</ele>
        <time>2015-12-15T13:53:34Z</time>
      </trkpt>
      <trkpt lat="47.25603" lon="5.10484">
        <ele>211.4</ele>
        <time>2015-12-15T13:53:43Z</time>
      </trkpt>
      <trkpt lat="47.25596" lon="5.10494">
        <ele>211.2</ele>
        <time>2015-12-15T13:53:52Z</time>
      </trkpt>
      <trkpt lat="47.25589" lon="5.10505">
        <ele>211.1</ele>
        <time>2015-12-15T13:54:01Z</time>
      </trkpt>
      <trkpt lat="47.25583" lon="5.10515">
        <ele>211.2</ele>
        <time>2015-12-15T13:54:09Z</time>
      </trkpt>
      <trkpt lat="47.25576" lon="5.10526">
        <ele>211.3</ele>
        <time>2015-12-15T13:54:17Z</time>
      </trkpt>
      <trkpt lat="47.25569" lon="5.10537">
        <ele>211.4</ele>
        <time>2015-12-15T13:54:25Z</time>
      </trkpt>
      <trkpt lat="47.25563" lon="5.10548">
        <ele>211.4</ele>
        <time>2015-12-15T13:54:33Z</time>
      </trkpt>
      <trkpt lat="47.25556" lon="5.10559">
        <ele>211.5</ele>
        <time>2015-12-15T13:54:41Z</time>
      </trkpt>
      <trkpt lat="47.25549" lon="5.10569">
        <ele>211.5</ele>
        <time>2015-12-15T13:54:49Z</time>
      </trkpt>
      <trkpt lat="47.25542" lon="5.1058">
        <ele>211.5</ele>
        <time>2015-12-15T13:54:58Z</time>
      </trkpt>
      <trkpt lat="47.25536" lon="5.1059">
        <ele>211.4</ele>
        <time>2015-12-15T13:55:06Z</time>
      </trkpt>
      <trkpt lat="47.25529" lon="5.10601">
        <ele>211.4</ele>
        <time>2015-12-15T13:55:14Z</time>
      </trkpt>
      <trkpt lat="47.25523" lon="5.10612">
        <ele>211.3</ele>
        <time>2015-12-15T13:55:22Z</time>
      </trkpt>
      <trkpt lat="47.25518" lon="5.10623">
        <ele>211.2</ele>
        <time>2015-12-15T13:55:31Z</time>
      </trkpt>
      <trkpt lat="47.25511" lon="5.10633">
        <ele>211.1</ele>
        <time>2015-12-15T13:55:39Z</time>
      </trkpt>
      <trkpt lat="47.25504" lon="5.10643">
        <ele>211</ele>
        <time>2015-12-15T13:55:47Z</time>
      </trkpt>
      <trkpt lat="47.25498" lon="5.10654">
        <ele>211</ele>
        <time>2015-12-15T13:55:54Z</time>
      </trkpt>
      <trkpt lat="47.25491" lon="5.10664">
        <ele>210.9</ele>
        <time>2015-12-15T13:56:03Z</time>
      </trkpt>
      <trkpt lat="47.25485" lon="5.10674">
        <ele>210.8</ele>
        <time>2015-12-15T13:56:11Z</time>
      </trkpt>
      <trkpt lat="47.25479" lon="5.10684">
        <ele>210.6</ele>
        <time>2015-12-15T13:56:19Z</time>
      </trkpt>
      <trkpt lat="47.25473" lon="5.10695">
        <ele>210.5</ele>
        <time>2015-12-15T13:56:27Z</time>
      </trkpt>
      <trkpt lat="47.25466" lon="5.10706">
        <ele>210.3</ele>
        <time>2015-12-15T13:56:35Z</time>
      </trkpt>
      <trkpt lat="47.2546" lon="5.10717">
        <ele>210.2</ele>
        <time>2015-12-15T13:56:43Z</time>
      </trkpt>
      <trkpt lat="47.25453" lon="5.10727">
        <ele>210.1</ele>
        <time>2015-12-15T13:56:51Z</time>
      </trkpt>
      <trkpt lat="47.25447" lon="5.10738">
        <ele>210.1</ele>
        <time>2015-12-15T13:56:59Z</time>
      </trkpt>
      <trkpt lat="47.2544" lon="5.10747">
        <ele>210</ele>
        <time>2015-12-15T13:57:07Z</time>
      </trkpt>
      <trkpt lat="47.25434" lon="5.10758">
        <ele>210.1</ele>
        <time>2015-12-15T13:57:15Z</time>
      </trkpt>
      <trkpt lat="47.25428" lon="5.10768">
        <ele>210.4</ele>
        <time>2015-12-15T13:57:23Z</time>
      </trkpt>
      <trkpt lat="47.25422" lon="5.10779">
        <ele>210.6</ele>
        <time>2015-12-15T13:57:31Z</time>
      </trkpt>
      <trkpt lat="47.25415" lon="5.1079">
        <ele>210.9</ele>
        <time>2015-12-15T13:57:39Z</time>
      </trkpt>
      <trkpt lat="47.25408" lon="5.10799">
        <ele>211</ele>
        <time>2015-12-15T13:57:52Z</time>
      </trkpt>
      <trkpt lat="47.25401" lon="5.1081">
        <ele>211.1</ele>
        <time>2015-12-15T13:57:59Z</time>
      </trkpt>
      <trkpt lat="47.25395" lon="5.1082">
        <ele>211.2</ele>
        <time>2015-12-15T13:58:06Z</time>
      </trkpt>
      <trkpt lat="47.2539" lon="5.10831">
        <ele>211.3</ele>
        <time>2015-12-15T13:58:13Z</time>
      </trkpt>
      <trkpt lat="47.25383" lon="5.10841">
        <ele>211.2</ele>
        <time>2015-12-15T13:58:20Z</time>
      </trkpt>
      <trkpt lat="47.25375" lon="5.10851">
        <ele>211.1</ele>
        <time>2015-12-15T13:58:28Z</time>
      </trkpt>
      <trkpt lat="47.25366" lon="5.10858">
        <ele>211</ele>
        <time>2015-12-15T13:58:37Z</time>
      </trkpt>
      <trkpt lat="47.25359" lon="5.10848">
        <ele>210.7</ele>
        <time>2015-12-15T13:58:45Z</time>
      </trkpt>
      <trkpt lat="47.25353" lon="5.10839">
        <ele>210.5</ele>
        <time>2015-12-15T13:58:52Z</time>
      </trkpt>
      <trkpt lat="47.25346" lon="5.10829">
        <ele>210.3</ele>
        <time>2015-12-15T13:59:00Z</time>
      </trkpt>
      <trkpt lat="47.25339" lon="5.10821">
        <ele>210</ele>
        <time>2015-12-15T13:59:09Z</time>
      </trkpt>
      <trkpt lat="47.25332" lon="5.10811">
        <ele>209.7</ele>
        <time>2015-12-15T14:00:08Z</time>
      </trkpt>
      <trkpt lat="47.25325" lon="5.10801">
        <ele>209.6</ele>
        <time>2015-12-15T14:00:18Z</time>
      </trkpt>
      <trkpt lat="47.25318" lon="5.10794">
        <ele>209.6</ele>
        <time>2015-12-15T14:03:16Z</time>
      </trkpt>
      <trkpt lat="47.2531" lon="5.10787">
        <ele>209.6</ele>
        <time>2015-12-15T14:03:54Z</time>
      </trkpt>
      <trkpt lat="47.25306" lon="5.10775">
        <ele>209.5</ele>
        <time>2015-12-15T14:06:12Z</time>
      </trkpt>
      <trkpt lat="47.25299" lon="5.10765">
        <ele>209.5</ele>
        <time>2015-12-15T14:06:21Z</time>
      </trkpt>
      <trkpt lat="47.25292" lon="5.10756">
        <ele>209.5</ele>
        <time>2015-12-15T14:06:30Z</time>
      </trkpt>
      <trkpt lat="47.25284" lon="5.10748">
        <ele>209.6</ele>
        <time>2015-12-15T14:06:39Z</time>
      </trkpt>
      <trkpt lat="47.25277" lon="5.10737">
        <ele>209.6</ele>
        <time>2015-12-15T14:06:48Z</time>
      </trkpt>
      <trkpt lat="47.2527" lon="5.10727">
        <ele>209.5</ele>
        <time>2015-12-15T14:06:57Z</time>
      </trkpt>
      <trkpt lat="47.25263" lon="5.10716">
        <ele>209.5</ele>
        <time>2015-12-15T14:07:05Z</time>
      </trkpt>
      <trkpt lat="47.25256" lon="5.10707">
        <ele>209.5</ele>
        <time>2015-12-15T14:07:13Z</time>
      </trkpt>
      <trkpt lat="47.25248" lon="5.10697">
        <ele>209.4</ele>
        <time>2015-12-15T14:07:22Z</time>
      </trkpt>
      <trkpt lat="47.25242" lon="5.10688">
        <ele>209.3</ele>
        <time>2015-12-15T14:07:30Z</time>
      </trkpt>
      <trkpt lat="47.25235" lon="5.10678">
        <ele>209.3</ele>
        <time>2015-12-15T14:07:38Z</time>
      </trkpt>
      <trkpt lat="47.25228" lon="5.10668">
        <ele>209.3</ele>
        <time>2015-12-15T14:07:46Z</time>
      </trkpt>
      <trkpt lat="47.25221" lon="5.1066">
        <ele>209.4</ele>
        <time>2015-12-15T14:07:55Z</time>
      </trkpt>
      <trkpt lat="47.25214" lon="5.10651">
        <ele>209.6</ele>
        <time>2015-12-15T14:08:02Z</time>
      </trkpt>
      <trkpt lat="47.25207" lon="5.10642">
        <ele>209.8</ele>
        <time>2015-12-15T14:08:09Z</time>
      </trkpt>
      <trkpt lat="47.252" lon="5.10634">
        <ele>210</ele>
        <time>2015-12-15T14:08:17Z</time>
      </trkpt>
      <trkpt lat="47.25193" lon="5.10623">
        <ele>210.2</ele>
        <time>2015-12-15T14:08:26Z</time>
      </trkpt>
      <trkpt lat="47.25185" lon="5.10614">
        <ele>210.4</ele>
        <time>2015-12-15T14:08:35Z</time>
      </trkpt>
      <trkpt lat="47.25177" lon="5.10604">
        <ele>210.6</ele>
        <time>2015-12-15T14:08:44Z</time>
      </trkpt>
      <trkpt lat="47.25171" lon="5.10595">
        <ele>210.8</ele>
        <time>2015-12-15T14:08:51Z</time>
      </trkpt>
      <trkpt lat="47.25164" lon="5.10586">
        <ele>211</ele>
        <time>2015-12-15T14:08:59Z</time>
      </trkpt>
      <trkpt lat="47.25158" lon="5.10576">
        <ele>210.9</ele>
        <time>2015-12-15T14:09:06Z</time>
      </trkpt>
      <trkpt lat="47.2515" lon="5.10566">
        <ele>210.8</ele>
        <time>2015-12-15T14:09:13Z</time>
      </trkpt>
      <trkpt lat="47.25143" lon="5.10556">
        <ele>210.8</ele>
        <time>2015-12-15T14:09:20Z</time>
      </trkpt>
      <trkpt lat="47.25137" lon="5.10547">
        <ele>210.7</ele>
        <time>2015-12-15T14:09:27Z</time>
      </trkpt>
      <trkpt lat="47.2513" lon="5.10538">
        <ele>210.7</ele>
        <time>2015-12-15T14:09:33Z</time>
      </trkpt>
      <trkpt lat="47.25122" lon="5.1053">
        <ele>210.7</ele>
        <time>2015-12-15T14:09:42Z</time>
      </trkpt>
      <trkpt lat="47.25115" lon="5.1052">
        <ele>210.7</ele>
        <time>2015-12-15T14:09:50Z</time>
      </trkpt>
      <trkpt lat="47.25109" lon="5.10511">
        <ele>210.7</ele>
        <time>2015-12-15T14:09:57Z</time>
      </trkpt>
      <trkpt lat="47.25101" lon="5.10503">
        <ele>210.8</ele>
        <time>2015-12-15T14:10:05Z</time>
      </trkpt>
      <trkpt lat="47.25094" lon="5.10493">
        <ele>210.8</ele>
        <time>2015-12-15T14:10:13Z</time>
      </trkpt>
      <trkpt lat="47.25087" lon="5.10483">
        <ele>210.7</ele>
        <time>2015-12-15T14:10:20Z</time>
      </trkpt>
      <trkpt lat="47.25079" lon="5.10473">
        <ele>210.7</ele>
        <time>2015-12-15T14:10:28Z</time>
      </trkpt>
      <trkpt lat="47.25073" lon="5.10463">
        <ele>210.6</ele>
        <time>2015-12-15T14:10:35Z</time>
      </trkpt>
      <trkpt lat="47.25066" lon="5.10453">
        <ele>210.5</ele>
        <time>2015-12-15T14:10:42Z</time>
      </trkpt>
      <trkpt lat="47.25058" lon="5.10444">
        <ele>210.4</ele>
        <time>2015-12-15T14:10:49Z</time>
      </trkpt>
      <trkpt lat="47.25052" lon="5.10434">
        <ele>210.3</ele>
        <time>2015-12-15T14:10:56Z</time>
      </trkpt>
      <trkpt lat="47.25045" lon="5.10425">
        <ele>210.1</ele>
        <time>2015-12-15T14:11:04Z</time>
      </trkpt>
      <trkpt lat="47.25036" lon="5.10421">
        <ele>210.1</ele>
        <time>2015-12-15T14:11:12Z</time>
      </trkpt>
      <trkpt lat="47.25027" lon="5.10424">
        <ele>210.1</ele>
        <time>2015-12-15T14:11:24Z</time>
      </trkpt>
      <trkpt lat="47.25019" lon="5.10432">
        <ele>210.3</ele>
        <time>2015-12-15T14:11:34Z</time>
      </trkpt>
      <trkpt lat="47.25011" lon="5.10441">
        <ele>210.5</ele>
        <time>2015-12-15T14:11:44Z</time>
      </trkpt>
      <trkpt lat="47.25004" lon="5.1045">
        <ele>210.8</ele>
        <time>2015-12-15T14:11:54Z</time>
      </trkpt>
      <trkpt lat="47.24996" lon="5.10459">
        <ele>211</ele>
        <time>2015-12-15T14:12:03Z</time>
      </trkpt>
      <trkpt lat="47.24988" lon="5.10468">
        <ele>211.1</ele>
        <time>2015-12-15T14:12:12Z</time>
      </trkpt>
      <trkpt lat="47.2498" lon="5.10476">
        <ele>211.2</ele>
        <time>2015-12-15T14:12:20Z</time>
      </trkpt>
      <trkpt lat="47.24972" lon="5.10486">
        <ele>211.3</ele>
        <time>2015-12-15T14:12:28Z</time>
      </trkpt>
      <trkpt lat="47.24965" lon="5.10496">
        <ele>211.5</ele>
        <time>2015-12-15T14:12:36Z</time>
      </trkpt>
      <trkpt lat="47.24957" lon="5.10505">
        <ele>211.4</ele>
        <time>2015-12-15T14:12:44Z</time>
      </trkpt>
      <trkpt lat="47.24949" lon="5.10513">
        <ele>211.2</ele>
        <time>2015-12-15T14:12:52Z</time>
      </trkpt>
      <trkpt lat="47.24941" lon="5.10521">
        <ele>211</ele>
        <time>2015-12-15T14:13:01Z</time>
      </trkpt>
      <trkpt lat="47.24934" lon="5.1053">
        <ele>210.8</ele>
        <time>2015-12-15T14:13:09Z</time>
      </trkpt>
      <trkpt lat="47.24926" lon="5.10539">
        <ele>210.6</ele>
        <time>2015-12-15T14:13:16Z</time>
      </trkpt>
      <trkpt lat="47.24919" lon="5.10548">
        <ele>210.4</ele>
        <time>2015-12-15T14:13:23Z</time>
      </trkpt>
      <trkpt lat="47.24912" lon="5.10556">
        <ele>210.3</ele>
        <time>2015-12-15T14:13:30Z</time>
      </trkpt>
      <trkpt lat="47.24904" lon="5.10566">
        <ele>210.2</ele>
        <time>2015-12-15T14:13:38Z</time>
      </trkpt>
      <trkpt lat="47.24896" lon="5.10574">
        <ele>210.1</ele>
        <time>2015-12-15T14:13:46Z</time>
      </trkpt>
      <trkpt lat="47.24888" lon="5.10583">
        <ele>210</ele>
        <time>2015-12-15T14:13:54Z</time>
      </trkpt>
      <trkpt lat="47.24881" lon="5.10592">
        <ele>210</ele>
        <time>2015-12-15T14:14:02Z</time>
      </trkpt>
      <trkpt lat="47.24873" lon="5.10601">
        <ele>210</ele>
        <time>2015-12-15T14:14:10Z</time>
      </trkpt>
      <trkpt lat="47.24866" lon="5.10611">
        <ele>210</ele>
        <time>2015-12-15T14:14:18Z</time>
      </trkpt>
      <trkpt lat="47.24858" lon="5.1062">
        <ele>210</ele>
        <time>2015-12-15T14:14:26Z</time>
      </trkpt>
      <trkpt lat="47.2485" lon="5.10628">
        <ele>210</ele>
        <time>2015-12-15T14:14:33Z</time>
      </trkpt>
      <trkpt lat="47.24843" lon="5.10637">
        <ele>210</ele>
        <time>2015-12-15T14:14:42Z</time>
      </trkpt>
      <trkpt lat="47.24837" lon="5.10647">
        <ele>210</ele>
        <time>2015-12-15T14:14:50Z</time>
      </trkpt>
      <trkpt lat="47.24829" lon="5.10655">
        <ele>210</ele>
        <time>2015-12-15T14:14:57Z</time>
      </trkpt>
      <trkpt lat="47.24823" lon="5.10666">
        <ele>210</ele>
        <time>2015-12-15T14:15:05Z</time>
      </trkpt>
      <trkpt lat="47.24815" lon="5.10673">
        <ele>210.1</ele>
        <time>2015-12-15T14:15:13Z</time>
      </trkpt>
      <trkpt lat="47.24807" lon="5.1068">
        <ele>210.2</ele>
        <time>2015-12-15T14:15:20Z</time>
      </trkpt>
      <trkpt lat="47.24799" lon="5.10689">
        <ele>210.3</ele>
        <time>2015-12-15T14:15:28Z</time>
      </trkpt>
      <trkpt lat="47.24792" lon="5.10699">
        <ele>210.4</ele>
        <time>2015-12-15T14:15:36Z</time>
      </trkpt>
      <trkpt lat="47.24785" lon="5.10708">
        <ele>210.5</ele>
        <time>2015-12-15T14:15:44Z</time>
      </trkpt>
      <trkpt lat="47.24778" lon="5.10718">
        <ele>210.6</ele>
        <time>2015-12-15T14:15:51Z</time>
      </trkpt>
      <trkpt lat="47.2477" lon="5.10726">
        <ele>210.7</ele>
        <time>2015-12-15T14:15:59Z</time>
      </trkpt>
      <trkpt lat="47.24762" lon="5.10733">
        <ele>210.8</ele>
        <time>2015-12-15T14:16:07Z</time>
      </trkpt>
      <trkpt lat="47.24754" lon="5.10741">
        <ele>210.9</ele>
        <time>2015-12-15T14:16:22Z</time>
      </trkpt>
      <trkpt lat="47.24747" lon="5.1075">
        <ele>211</ele>
        <time>2015-12-15T14:16:30Z</time>
      </trkpt>
      <trkpt lat="47.2474" lon="5.10759">
        <ele>211</ele>
        <time>2015-12-15T14:16:37Z</time>
      </trkpt>
      <trkpt lat="47.24732" lon="5.10768">
        <ele>210.9</ele>
        <time>2015-12-15T14:16:45Z</time>
      </trkpt>
      <trkpt lat="47.24725" lon="5.10776">
        <ele>210.9</ele>
        <time>2015-12-15T14:16:52Z</time>
      </trkpt>
      <trkpt lat="47.24718" lon="5.10784">
        <ele>210.9</ele>
        <time>2015-12-15T14:16:59Z</time>
      </trkpt>
      <trkpt lat="47.2471" lon="5.10794">
        <ele>210.8</ele>
        <time>2015-12-15T14:17:07Z</time>
      </trkpt>
      <trkpt lat="47.24703" lon="5.10804">
        <ele>210.7</ele>
        <time>2015-12-15T14:17:14Z</time>
      </trkpt>
      <trkpt lat="47.24695" lon="5.10813">
        <ele>210.6</ele>
        <time>2015-12-15T14:17:21Z</time>
      </trkpt>
      <trkpt lat="47.24687" lon="5.10822">
        <ele>210.5</ele>
        <time>2015-12-15T14:17:29Z</time>
      </trkpt>
      <trkpt lat="47.2468" lon="5.10831">
        <ele>210.3</ele>
        <time>2015-12-15T14:17:37Z</time>
      </trkpt>
      <trkpt lat="47.24673" lon="5.1084">
        <ele>210.1</ele>
        <time>2015-12-15T14:17:45Z</time>
      </trkpt>
      <trkpt lat="47.24665" lon="5.10848">
        <ele>209.8</ele>
        <time>2015-12-15T14:17:52Z</time>
      </trkpt>
      <trkpt lat="47.24658" lon="5.10856">
        <ele>209.7</ele>
        <time>2015-12-15T14:17:59Z</time>
      </trkpt>
      <trkpt lat="47.2465" lon="5.10865">
        <ele>209.6</ele>
        <time>2015-12-15T14:18:06Z</time>
      </trkpt>
      <trkpt lat="47.24643" lon="5.10874">
        <ele>209.5</ele>
        <time>2015-12-15T14:18:12Z</time>
      </trkpt>
      <trkpt lat="47.24635" lon="5.10885">
        <ele>209.4</ele>
        <time>2015-12-15T14:18:21Z</time>
      </trkpt>
      <trkpt lat="47.24628" lon="5.10894">
        <ele>209.3</ele>
        <time>2015-12-15T14:18:29Z</time>
      </trkpt>
      <trkpt lat="47.2462" lon="5.10902">
        <ele>209.2</ele>
        <time>2015-12-15T14:18:37Z</time>
      </trkpt>
      <trkpt lat="47.24613" lon="5.10911">
        <ele>209.1</ele>
        <time>2015-12-15T14:18:45Z</time>
      </trkpt>
      <trkpt lat="47.24605" lon="5.1092">
        <ele>209</ele>
        <time>2015-12-15T14:18:52Z</time>
      </trkpt>
      <trkpt lat="47.24598" lon="5.10929">
        <ele>209</ele>
        <time>2015-12-15T14:18:59Z</time>
      </trkpt>
      <trkpt lat="47.24591" lon="5.10937">
        <ele>209</ele>
        <time>2015-12-15T14:19:07Z</time>
      </trkpt>
      <trkpt lat="47.24583" lon="5.10945">
        <ele>209</ele>
        <time>2015-12-15T14:19:15Z</time>
      </trkpt>
      <trkpt lat="47.24575" lon="5.10954">
        <ele>209</ele>
        <time>2015-12-15T14:19:22Z</time>
      </trkpt>
      <trkpt lat="47.24568" lon="5.10963">
        <ele>209</ele>
        <time>2015-12-15T14:19:33Z</time>
      </trkpt>
      <trkpt lat="47.24561" lon="5.10972">
        <ele>209</ele>
        <time>2015-12-15T14:19:41Z</time>
      </trkpt>
      <trkpt lat="47.24553" lon="5.1098">
        <ele>209</ele>
        <time>2015-12-15T14:19:47Z</time>
      </trkpt>
      <trkpt lat="47.24545" lon="5.10988">
        <ele>209</ele>
        <time>2015-12-15T14:19:53Z</time>
      </trkpt>
      <trkpt lat="47.24537" lon="5.10994">
        <ele>209</ele>
        <time>2015-12-15T14:20:06Z</time>
      </trkpt>
      <trkpt lat="47.2453" lon="5.11003">
        <ele>209</ele>
        <time>2015-12-15T14:21:05Z</time>
      </trkpt>
      <trkpt lat="47.24538" lon="5.10995">
        <ele>209</ele>
        <time>2015-12-15T14:21:18Z</time>
      </trkpt>
      <trkpt lat="47.24544" lon="5.10986">
        <ele>209</ele>
        <time>2015-12-15T14:22:04Z</time>
      </trkpt>
      <trkpt lat="47.24537" lon="5.10995">
        <ele>209</ele>
        <time>2015-12-15T14:30:07Z</time>
      </trkpt>
      <trkpt lat="47.2453" lon="5.11005">
        <ele>209</ele>
        <time>2015-12-15T14:30:15Z</time>
      </trkpt>
      <trkpt lat="47.24522" lon="5.11013">
        <ele>208.9</ele>
        <time>2015-12-15T14:30:24Z</time>
      </trkpt>
      <trkpt lat="47.24514" lon="5.11022">
        <ele>208.8</ele>
        <time>2015-12-15T14:30:33Z</time>
      </trkpt>
      <trkpt lat="47.24505" lon="5.11025">
        <ele>208.7</ele>
        <time>2015-12-15T14:30:43Z</time>
      </trkpt>
      <trkpt lat="47.24502" lon="5.11011">
        <ele>208.9</ele>
        <time>2015-12-15T14:30:53Z</time>
      </trkpt>
      <trkpt lat="47.24497" lon="5.10998">
        <ele>209.1</ele>
        <time>2015-12-15T14:31:05Z</time>
      </trkpt>
      <trkpt lat="47.24494" lon="5.10985">
        <ele>209.1</ele>
        <time>2015-12-15T14:31:14Z</time>
      </trkpt>
      <trkpt lat="47.24489" lon="5.10972">
        <ele>209.2</ele>
        <time>2015-12-15T14:31:21Z</time>
      </trkpt>
      <trkpt lat="47.24484" lon="5.10959">
        <ele>209.2</ele>
        <time>2015-12-15T14:31:30Z</time>
      </trkpt>
      <trkpt lat="47.24477" lon="5.10949">
        <ele>209.2</ele>
        <time>2015-12-15T14:31:39Z</time>
      </trkpt>
      <trkpt lat="47.2447" lon="5.10939">
        <ele>209.2</ele>
        <time>2015-12-15T14:31:48Z</time>
      </trkpt>
      <trkpt lat="47.24464" lon="5.1093">
        <ele>209.1</ele>
        <time>2015-12-15T14:31:58Z</time>
      </trkpt>
      <trkpt lat="47.24457" lon="5.1092">
        <ele>209</ele>
        <time>2015-12-15T14:32:06Z</time>
      </trkpt>
      <trkpt lat="47.24449" lon="5.10912">
        <ele>209.1</ele>
        <time>2015-12-15T14:32:14Z</time>
      </trkpt>
      <trkpt lat="47.24442" lon="5.10901">
        <ele>209.2</ele>
        <time>2015-12-15T14:32:22Z</time>
      </trkpt>
      <trkpt lat="47.24435" lon="5.10891">
        <ele>209.3</ele>
        <time>2015-12-15T14:32:30Z</time>
      </trkpt>
      <trkpt lat="47.24428" lon="5.10881">
        <ele>209.4</ele>
        <time>2015-12-15T14:32:37Z</time>
      </trkpt>
      <trkpt lat="47.24421" lon="5.10872">
        <ele>209.5</ele>
        <time>2015-12-15T14:32:47Z</time>
      </trkpt>
      <trkpt lat="47.24414" lon="5.1086">
        <ele>209.7</ele>
        <time>2015-12-15T14:32:54Z</time>
      </trkpt>
      <trkpt lat="47.24407" lon="5.10851">
        <ele>209.9</ele>
        <time>2015-12-15T14:33:04Z</time>
      </trkpt>
      <trkpt lat="47.24401" lon="5.10841">
        <ele>210.1</ele>
        <time>2015-12-15T14:33:11Z</time>
      </trkpt>
      <trkpt lat="47.24394" lon="5.10832">
        <ele>210.2</ele>
        <time>2015-12-15T14:33:18Z</time>
      </trkpt>
      <trkpt lat="47.24386" lon="5.10824">
        <ele>210.1</ele>
        <time>2015-12-15T14:33:26Z</time>
      </trkpt>
      <trkpt lat="47.2438" lon="5.10814">
        <ele>210</ele>
        <time>2015-12-15T14:33:33Z</time>
      </trkpt>
      <trkpt lat="47.24374" lon="5.10803">
        <ele>209.8</ele>
        <time>2015-12-15T14:33:40Z</time>
      </trkpt>
      <trkpt lat="47.24368" lon="5.10793">
        <ele>209.6</ele>
        <time>2015-12-15T14:33:47Z</time>
      </trkpt>
      <trkpt lat="47.2436" lon="5.10783">
        <ele>209.5</ele>
        <time>2015-12-15T14:33:54Z</time>
      </trkpt>
      <trkpt lat="47.24353" lon="5.10771">
        <ele>209.3</ele>
        <time>2015-12-15T14:34:02Z</time>
      </trkpt>
      <trkpt lat="47.24346" lon="5.10761">
        <ele>209.1</ele>
        <time>2015-12-15T14:34:10Z</time>
      </trkpt>
      <trkpt lat="47.2434" lon="5.10751">
        <ele>208.9</ele>
        <time>2015-12-15T14:34:17Z</time>
      </trkpt>
      <trkpt lat="47.24333" lon="5.10741">
        <ele>209</ele>
        <time>2015-12-15T14:34:25Z</time>
      </trkpt>
      <trkpt lat="47.24326" lon="5.10731">
        <ele>209</ele>
        <time>2015-12-15T14:34:33Z</time>
      </trkpt>
      <trkpt lat="47.24319" lon="5.10722">
        <ele>209</ele>
        <time>2015-12-15T14:34:41Z</time>
      </trkpt>
      <trkpt lat="47.24312" lon="5.10714">
        <ele>209</ele>
        <time>2015-12-15T14:34:49Z</time>
      </trkpt>
      <trkpt lat="47.24305" lon="5.10704">
        <ele>209</ele>
        <time>2015-12-15T14:34:58Z</time>
      </trkpt>
      <trkpt lat="47.24297" lon="5.10695">
        <ele>209</ele>
        <time>2015-12-15T14:35:08Z</time>
      </trkpt>
      <trkpt lat="47.24291" lon="5.10685">
        <ele>209</ele>
        <time>2015-12-15T14:35:16Z</time>
      </trkpt>
      <trkpt lat="47.24284" lon="5.10676">
        <ele>209</ele>
        <time>2015-12-15T14:35:25Z</time>
      </trkpt>
      <trkpt lat="47.24277" lon="5.10665">
        <ele>209</ele>
        <time>2015-12-15T14:35:32Z</time>
      </trkpt>
      <trkpt lat="47.2427" lon="5.10654">
        <ele>209</ele>
        <time>2015-12-15T14:35:38Z</time>
      </trkpt>
      <trkpt lat="47.24262" lon="5.10645">
        <ele>209</ele>
        <time>2015-12-15T14:35:47Z</time>
      </trkpt>
      <trkpt lat="47.24255" lon="5.10635">
        <ele>209</ele>
        <time>2015-12-15T14:35:55Z</time>
      </trkpt>
      <trkpt lat="47.24247" lon="5.10626">
        <ele>209</ele>
        <time>2015-12-15T14:36:05Z</time>
      </trkpt>
      <trkpt lat="47.24242" lon="5.10616">
        <ele>209</ele>
        <time>2015-12-15T14:36:12Z</time>
      </trkpt>
      <trkpt lat="47.24234" lon="5.10608">
        <ele>209</ele>
        <time>2015-12-15T14:36:20Z</time>
      </trkpt>
      <trkpt lat="47.24225" lon="5.10602">
        <ele>209</ele>
        <time>2015-12-15T14:36:31Z</time>
      </trkpt>
      <trkpt lat="47.24217" lon="5.10594">
        <ele>209</ele>
        <time>2015-12-15T14:36:41Z</time>
      </trkpt>
      <trkpt lat="47.24211" lon="5.10584">
        <ele>209</ele>
        <time>2015-12-15T14:36:49Z</time>
      </trkpt>
      <trkpt lat="47.24204" lon="5.10575">
        <ele>209</ele>
        <time>2015-12-15T14:37:00Z</time>
      </trkpt>
      <trkpt lat="47.24203" lon="5.10562">
        <ele>208.9</ele>
        <time>2015-12-15T14:37:16Z</time>
      </trkpt>
      <trkpt lat="47.24209" lon="5.10551">
        <ele>208.8</ele>
        <time>2015-12-15T14:37:24Z</time>
      </trkpt>
      <trkpt lat="47.24216" lon="5.10542">
        <ele>208.7</ele>
        <time>2015-12-15T14:37:33Z</time>
      </trkpt>
      <trkpt lat="47.24222" lon="5.10532">
        <ele>208.6</ele>
        <time>2015-12-15T14:37:41Z</time>
      </trkpt>
      <trkpt lat="47.2423" lon="5.10526">
        <ele>208.5</ele>
        <time>2015-12-15T14:37:49Z</time>
      </trkpt>
      <trkpt lat="47.24237" lon="5.10517">
        <ele>208.3</ele>
        <time>2015-12-15T14:37:58Z</time>
      </trkpt>
      <trkpt lat="47.24244" lon="5.10506">
        <ele>208.1</ele>
        <time>2015-12-15T14:38:07Z</time>
      </trkpt>
      <trkpt lat="47.24251" lon="5.10497">
        <ele>208.1</ele>
        <time>2015-12-15T14:38:15Z</time>
      </trkpt>
      <trkpt lat="47.24257" lon="5.10488">
        <ele>208.4</ele>
        <time>2015-12-15T14:38:23Z</time>
      </trkpt>
      <trkpt lat="47.24265" lon="5.10479">
        <ele>208.6</ele>
        <time>2015-12-15T14:38:31Z</time>
      </trkpt>
      <trkpt lat="47.24272" lon="5.1047">
        <ele>208.8</ele>
        <time>2015-12-15T14:38:39Z</time>
      </trkpt>
      <trkpt lat="47.2428" lon="5.1046">
        <ele>209</ele>
        <time>2015-12-15T14:38:47Z</time>
      </trkpt>
      <trkpt lat="47.24287" lon="5.1045">
        <ele>209.1</ele>
        <time>2015-12-15T14:38:55Z</time>
      </trkpt>
      <trkpt lat="47.24295" lon="5.1044">
        <ele>209.2</ele>
        <time>2015-12-15T14:39:04Z</time>
      </trkpt>
      <trkpt lat="47.24301" lon="5.10431">
        <ele>209.3</ele>
        <time>2015-12-15T14:39:12Z</time>
      </trkpt>
      <trkpt lat="47.24308" lon="5.10422">
        <ele>209.3</ele>
        <time>2015-12-15T14:39:20Z</time>
      </trkpt>
      <trkpt lat="47.24315" lon="5.10414">
        <ele>209.3</ele>
        <time>2015-12-15T14:39:29Z</time>
      </trkpt>
      <trkpt lat="47.24323" lon="5.10405">
        <ele>209.3</ele>
        <time>2015-12-15T14:39:37Z</time>
      </trkpt>
      <trkpt lat="47.24329" lon="5.10395">
        <ele>209.3</ele>
        <time>2015-12-15T14:39:46Z</time>
      </trkpt>
      <trkpt lat="47.24336" lon="5.10385">
        <ele>209.4</ele>
        <time>2015-12-15T14:39:54Z</time>
      </trkpt>
      <trkpt lat="47.24343" lon="5.10375">
        <ele>209.5</ele>
        <time>2015-12-15T14:40:02Z</time>
      </trkpt>
      <trkpt lat="47.24351" lon="5.10367">
        <ele>209.6</ele>
        <time>2015-12-15T14:40:10Z</time>
      </trkpt>
      <trkpt lat="47.24358" lon="5.10357">
        <ele>209.6</ele>
        <time>2015-12-15T14:40:18Z</time>
      </trkpt>
      <trkpt lat="47.24366" lon="5.10348">
        <ele>209.6</ele>
        <time>2015-12-15T14:40:26Z</time>
      </trkpt>
      <trkpt lat="47.24374" lon="5.10339">
        <ele>209.5</ele>
        <time>2015-12-15T14:40:34Z</time>
      </trkpt>
      <trkpt lat="47.24382" lon="5.1033">
        <ele>209.4</ele>
        <time>2015-12-15T14:40:42Z</time>
      </trkpt>
      <trkpt lat="47.2439" lon="5.10322">
        <ele>209.3</ele>
        <time>2015-12-15T14:40:49Z</time>
      </trkpt>
      <trkpt lat="47.24397" lon="5.10313">
        <ele>209.2</ele>
        <time>2015-12-15T14:40:56Z</time>
      </trkpt>
      <trkpt lat="47.24405" lon="5.10304">
        <ele>209.1</ele>
        <time>2015-12-15T14:41:04Z</time>
      </trkpt>
      <trkpt lat="47.24412" lon="5.10296">
        <ele>209</ele>
        <time>2015-12-15T14:41:11Z</time>
      </trkpt>
      <trkpt lat="47.24419" lon="5.10287">
        <ele>209.1</ele>
        <time>2015-12-15T14:41:19Z</time>
      </trkpt>
      <trkpt lat="47.24427" lon="5.10277">
        <ele>209.2</ele>
        <time>2015-12-15T14:41:28Z</time>
      </trkpt>
      <trkpt lat="47.24435" lon="5.10268">
        <ele>209.4</ele>
        <time>2015-12-15T14:41:36Z</time>
      </trkpt>
      <trkpt lat="47.24442" lon="5.10259">
        <ele>209.6</ele>
        <time>2015-12-15T14:41:44Z</time>
      </trkpt>
      <trkpt lat="47.24449" lon="5.10249">
        <ele>209.8</ele>
        <time>2015-12-15T14:41:53Z</time>
      </trkpt>
      <trkpt lat="47.24456" lon="5.1024">
        <ele>210.1</ele>
        <time>2015-12-15T14:42:02Z</time>
      </trkpt>
      <trkpt lat="47.24463" lon="5.10231">
        <ele>210.4</ele>
        <time>2015-12-15T14:42:10Z</time>
      </trkpt>
      <trkpt lat="47.2447" lon="5.1022">
        <ele>210.7</ele>
        <time>2015-12-15T14:42:20Z</time>
      </trkpt>
      <trkpt lat="47.24477" lon="5.1021">
        <ele>210.9</ele>
        <time>2015-12-15T14:42:29Z</time>
      </trkpt>
      <trkpt lat="47.24483" lon="5.102">
        <ele>211.2</ele>
        <time>2015-12-15T14:42:38Z</time>
      </trkpt>
      <trkpt lat="47.24491" lon="5.10191">
        <ele>211.5</ele>
        <time>2015-12-15T14:42:46Z</time>
      </trkpt>
      <trkpt lat="47.24499" lon="5.10182">
        <ele>211.8</ele>
        <time>2015-12-15T14:42:54Z</time>
      </trkpt>
      <trkpt lat="47.24505" lon="5.1017">
        <ele>211.9</ele>
        <time>2015-12-15T14:43:04Z</time>
      </trkpt>
      <trkpt lat="47.24511" lon="5.10159">
        <ele>211.7</ele>
        <time>2015-12-15T14:43:16Z</time>
      </trkpt>
      <trkpt lat="47.2452" lon="5.10155">
        <ele>211.5</ele>
        <time>2015-12-15T14:43:23Z</time>
      </trkpt>
      <trkpt lat="47.24529" lon="5.1015">
        <ele>211.3</ele>
        <time>2015-12-15T14:43:31Z</time>
      </trkpt>
      <trkpt lat="47.24535" lon="5.1014">
        <ele>211.2</ele>
        <time>2015-12-15T14:43:36Z</time>
      </trkpt>
      <trkpt lat="47.24542" lon="5.1013">
        <ele>211</ele>
        <time>2015-12-15T14:43:41Z</time>
      </trkpt>
      <trkpt lat="47.2455" lon="5.10121">
        <ele>210.8</ele>
        <time>2015-12-15T14:43:47Z</time>
      </trkpt>
      <trkpt lat="47.24557" lon="5.10114">
        <ele>210.6</ele>
        <time>2015-12-15T14:43:53Z</time>
      </trkpt>
      <trkpt lat="47.24564" lon="5.10105">
        <ele>210.5</ele>
        <time>2015-12-15T14:44:00Z</time>
      </trkpt>
      <trkpt lat="47.24572" lon="5.10096">
        <ele>210.3</ele>
        <time>2015-12-15T14:44:07Z</time>
      </trkpt>
      <trkpt lat="47.24579" lon="5.10088">
        <ele>210.1</ele>
        <time>2015-12-15T14:44:14Z</time>
      </trkpt>
      <trkpt lat="47.24587" lon="5.10079">
        <ele>210</ele>
        <time>2015-12-15T14:44:22Z</time>
      </trkpt>
      <trkpt lat="47.24594" lon="5.1007">
        <ele>210</ele>
        <time>2015-12-15T14:44:30Z</time>
      </trkpt>
      <trkpt lat="47.24602" lon="5.1006">
        <ele>210</ele>
        <time>2015-12-15T14:44:38Z</time>
      </trkpt>
      <trkpt lat="47.2461" lon="5.10051">
        <ele>210</ele>
        <time>2015-12-15T14:44:46Z</time>
      </trkpt>
      <trkpt lat="47.24617" lon="5.10042">
        <ele>210</ele>
        <time>2015-12-15T14:44:54Z</time>
      </trkpt>
      <trkpt lat="47.24625" lon="5.10033">
        <ele>210</ele>
        <time>2015-12-15T14:45:02Z</time>
      </trkpt>
      <trkpt lat="47.24632" lon="5.10024">
        <ele>210</ele>
        <time>2015-12-15T14:45:10Z</time>
      </trkpt>
      <trkpt lat="47.2464" lon="5.10014">
        <ele>210</ele>
        <time>2015-12-15T14:45:18Z</time>
      </trkpt>
      <trkpt lat="47.24647" lon="5.10005">
        <ele>210</ele>
        <time>2015-12-15T14:45:26Z</time>
      </trkpt>
      <trkpt lat="47.24655" lon="5.09996">
        <ele>210</ele>
        <time>2015-12-15T14:45:34Z</time>
      </trkpt>
      <trkpt lat="47.24662" lon="5.09987">
        <ele>210</ele>
        <time>2015-12-15T14:45:41Z</time>
      </trkpt>
      <trkpt lat="47.24669" lon="5.09977">
        <ele>210</ele>
        <time>2015-12-15T14:45:49Z</time>
      </trkpt>
      <trkpt lat="47.24676" lon="5.09967">
        <ele>210.1</ele>
        <time>2015-12-15T14:45:57Z</time>
      </trkpt>
      <trkpt lat="47.24683" lon="5.09959">
        <ele>210.1</ele>
        <time>2015-12-15T14:46:04Z</time>
      </trkpt>
      <trkpt lat="47.2469" lon="5.09949">
        <ele>210.1</ele>
        <time>2015-12-15T14:46:12Z</time>
      </trkpt>
      <trkpt lat="47.24696" lon="5.09938">
        <ele>210.1</ele>
        <time>2015-12-15T14:46:21Z</time>
      </trkpt>
      <trkpt lat="47.24703" lon="5.09929">
        <ele>210.1</ele>
        <time>2015-12-15T14:46:30Z</time>
      </trkpt>
      <trkpt lat="47.2471" lon="5.09921">
        <ele>210</ele>
        <time>2015-12-15T14:46:37Z</time>
      </trkpt>
      <trkpt lat="47.24719" lon="5.09912">
        <ele>210.1</ele>
        <time>2015-12-15T14:46:44Z</time>
      </trkpt>
      <trkpt lat="47.24727" lon="5.09904">
        <ele>210.3</ele>
        <time>2015-12-15T14:46:51Z</time>
      </trkpt>
      <trkpt lat="47.24734" lon="5.09896">
        <ele>210.5</ele>
        <time>2015-12-15T14:46:58Z</time>
      </trkpt>
      <trkpt lat="47.24742" lon="5.09887">
        <ele>210.7</ele>
        <time>2015-12-15T14:47:05Z</time>
      </trkpt>
      <trkpt lat="47.2475" lon="5.09878">
        <ele>210.9</ele>
        <time>2015-12-15T14:47:12Z</time>
      </trkpt>
      <trkpt lat="47.24757" lon="5.09868">
        <ele>211.1</ele>
        <time>2015-12-15T14:47:19Z</time>
      </trkpt>
      <trkpt lat="47.24764" lon="5.09858">
        <ele>211.3</ele>
        <time>2015-12-15T14:47:28Z</time>
      </trkpt>
      <trkpt lat="47.24771" lon="5.09847">
        <ele>211.5</ele>
        <time>2015-12-15T14:47:37Z</time>
      </trkpt>
      <trkpt lat="47.24778" lon="5.09839">
        <ele>211.6</ele>
        <time>2015-12-15T14:47:45Z</time>
      </trkpt>
      <trkpt lat="47.24785" lon="5.09829">
        <ele>211.5</ele>
        <time>2015-12-15T14:47:53Z</time>
      </trkpt>
      <trkpt lat="47.24791" lon="5.09819">
        <ele>211.3</ele>
        <time>2015-12-15T14:48:01Z</time>
      </trkpt>
      <trkpt lat="47.24798" lon="5.0981">
        <ele>211.1</ele>
        <time>2015-12-15T14:48:09Z</time>
      </trkpt>
      <trkpt lat="47.24805" lon="5.098">
        <ele>210.9</ele>
        <time>2015-12-15T14:48:17Z</time>
      </trkpt>
      <trkpt lat="47.24813" lon="5.09791">
        <ele>210.7</ele>
        <time>2015-12-15T14:48:25Z</time>
      </trkpt>
      <trkpt lat="47.2482" lon="5.09781">
        <ele>210.5</ele>
        <time>2015-12-15T14:48:33Z</time>
      </trkpt>
      <trkpt lat="47.24827" lon="5.09771">
        <ele>210.3</ele>
        <time>2015-12-15T14:48:41Z</time>
      </trkpt>
      <trkpt lat="47.24834" lon="5.09764">
        <ele>210.2</ele>
        <time>2015-12-15T14:48:48Z</time>
      </trkpt>
      <trkpt lat="47.24842" lon="5.09755">
        <ele>210.2</ele>
        <time>2015-12-15T14:48:56Z</time>
      </trkpt>
      <trkpt lat="47.24849" lon="5.09746">
        <ele>210.3</ele>
        <time>2015-12-15T14:49:03Z</time>
      </trkpt>
      <trkpt lat="47.24856" lon="5.09738">
        <ele>210.4</ele>
        <time>2015-12-15T14:49:10Z</time>
      </trkpt>
      <trkpt lat="47.24864" lon="5.09728">
        <ele>210.6</ele>
        <time>2015-12-15T14:49:18Z</time>
      </trkpt>
      <trkpt lat="47.24873" lon="5.09719">
        <ele>210.8</ele>
        <time>2015-12-15T14:49:25Z</time>
      </trkpt>
      <trkpt lat="47.24879" lon="5.0971">
        <ele>211</ele>
        <time>2015-12-15T14:49:32Z</time>
      </trkpt>
      <trkpt lat="47.24886" lon="5.097">
        <ele>211.2</ele>
        <time>2015-12-15T14:49:40Z</time>
      </trkpt>
      <trkpt lat="47.24895" lon="5.09692">
        <ele>211.4</ele>
        <time>2015-12-15T14:49:48Z</time>
      </trkpt>
      <trkpt lat="47.24903" lon="5.09683">
        <ele>211.6</ele>
        <time>2015-12-15T14:49:55Z</time>
      </trkpt>
      <trkpt lat="47.2491" lon="5.09675">
        <ele>211.8</ele>
        <time>2015-12-15T14:50:01Z</time>
      </trkpt>
      <trkpt lat="47.24918" lon="5.09667">
        <ele>212</ele>
        <time>2015-12-15T14:50:08Z</time>
      </trkpt>
      <trkpt lat="47.24925" lon="5.09658">
        <ele>212</ele>
        <time>2015-12-15T14:50:15Z</time>
      </trkpt>
      <trkpt lat="47.24933" lon="5.0965">
        <ele>212</ele>
        <time>2015-12-15T14:50:22Z</time>
      </trkpt>
      <trkpt lat="47.2494" lon="5.09641">
        <ele>212.1</ele>
        <time>2015-12-15T14:50:29Z</time>
      </trkpt>
      <trkpt lat="47.24948" lon="5.09632">
        <ele>212.2</ele>
        <time>2015-12-15T14:50:37Z</time>
      </trkpt>
      <trkpt lat="47.24955" lon="5.09622">
        <ele>212.3</ele>
        <time>2015-12-15T14:50:45Z</time>
      </trkpt>
      <trkpt lat="47.24962" lon="5.09612">
        <ele>212.5</ele>
        <time>2015-12-15T14:50:53Z</time>
      </trkpt>
      <trkpt lat="47.24968" lon="5.09601">
        <ele>212.7</ele>
        <time>2015-12-15T14:51:01Z</time>
      </trkpt>
      <trkpt lat="47.24976" lon="5.09592">
        <ele>212.8</ele>
        <time>2015-12-15T14:51:09Z</time>
      </trkpt>
      <trkpt lat="47.24985" lon="5.09585">
        <ele>213</ele>
        <time>2015-12-15T14:51:16Z</time>
      </trkpt>
      <trkpt lat="47.24992" lon="5.09575">
        <ele>212.8</ele>
        <time>2015-12-15T14:51:24Z</time>
      </trkpt>
      <trkpt lat="47.24999" lon="5.09564">
        <ele>212.5</ele>
        <time>2015-12-15T14:51:33Z</time>
      </trkpt>
      <trkpt lat="47.25006" lon="5.09556">
        <ele>212.3</ele>
        <time>2015-12-15T14:51:40Z</time>
      </trkpt>
      <trkpt lat="47.25014" lon="5.09547">
        <ele>212</ele>
        <time>2015-12-15T14:51:47Z</time>
      </trkpt>
      <trkpt lat="47.25022" lon="5.09538">
        <ele>211.8</ele>
        <time>2015-12-15T14:51:54Z</time>
      </trkpt>
      <trkpt lat="47.2503" lon="5.09529">
        <ele>211.7</ele>
        <time>2015-12-15T14:52:02Z</time>
      </trkpt>
      <trkpt lat="47.25037" lon="5.09519">
        <ele>211.6</ele>
        <time>2015-12-15T14:52:10Z</time>
      </trkpt>
      <trkpt lat="47.25045" lon="5.0951">
        <ele>211.6</ele>
        <time>2015-12-15T14:52:18Z</time>
      </trkpt>
      <trkpt lat="47.25053" lon="5.09501">
        <ele>211.6</ele>
        <time>2015-12-15T14:52:26Z</time>
      </trkpt>
      <trkpt lat="47.25061" lon="5.09492">
        <ele>211.8</ele>
        <time>2015-12-15T14:52:34Z</time>
      </trkpt>
      <trkpt lat="47.25068" lon="5.09483">
        <ele>212</ele>
        <time>2015-12-15T14:52:42Z</time>
      </trkpt>
      <trkpt lat="47.25075" lon="5.09475">
        <ele>212.2</ele>
        <time>2015-12-15T14:52:50Z</time>
      </trkpt>
      <trkpt lat="47.25082" lon="5.09465">
        <ele>212.4</ele>
        <time>2015-12-15T14:52:58Z</time>
      </trkpt>
      <trkpt lat="47.2509" lon="5.09456">
        <ele>212.5</ele>
        <time>2015-12-15T14:53:05Z</time>
      </trkpt>
      <trkpt lat="47.25097" lon="5.09446">
        <ele>212.5</ele>
        <time>2015-12-15T14:53:13Z</time>
      </trkpt>
      <trkpt lat="47.25105" lon="5.09438">
        <ele>212.6</ele>
        <time>2015-12-15T14:53:20Z</time>
      </trkpt>
      <trkpt lat="47.25112" lon="5.09427">
        <ele>212.6</ele>
        <time>2015-12-15T14:53:28Z</time>
      </trkpt>
      <trkpt lat="47.2512" lon="5.09418">
        <ele>212.6</ele>
        <time>2015-12-15T14:53:36Z</time>
      </trkpt>
      <trkpt lat="47.25127" lon="5.09408">
        <ele>212.4</ele>
        <time>2015-12-15T14:53:44Z</time>
      </trkpt>
      <trkpt lat="47.25134" lon="5.09398">
        <ele>212.3</ele>
        <time>2015-12-15T14:53:52Z</time>
      </trkpt>
      <trkpt lat="47.2514" lon="5.09388">
        <ele>212.2</ele>
        <time>2015-12-15T14:54:01Z</time>
      </trkpt>
      <trkpt lat="47.25148" lon="5.0938">
        <ele>212.1</ele>
        <time>2015-12-15T14:54:08Z</time>
      </trkpt>
      <trkpt lat="47.25156" lon="5.09371">
        <ele>212.1</ele>
        <time>2015-12-15T14:54:15Z</time>
      </trkpt>
      <trkpt lat="47.25163" lon="5.09362">
        <ele>212</ele>
        <time>2015-12-15T14:54:23Z</time>
      </trkpt>
      <trkpt lat="47.25171" lon="5.09353">
        <ele>212</ele>
        <time>2015-12-15T14:54:31Z</time>
      </trkpt>
      <trkpt lat="47.25178" lon="5.09344">
        <ele>211.9</ele>
        <time>2015-12-15T14:54:38Z</time>
      </trkpt>
      <trkpt lat="47.25186" lon="5.09336">
        <ele>211.8</ele>
        <time>2015-12-15T14:54:45Z</time>
      </trkpt>
      <trkpt lat="47.25193" lon="5.09326">
        <ele>211.8</ele>
        <time>2015-12-15T14:54:53Z</time>
      </trkpt>
      <trkpt lat="47.252" lon="5.09317">
        <ele>211.8</ele>
        <time>2015-12-15T14:55:01Z</time>
      </trkpt>
      <trkpt lat="47.25208" lon="5.09307">
        <ele>211.8</ele>
        <time>2015-12-15T14:55:09Z</time>
      </trkpt>
      <trkpt lat="47.25216" lon="5.09299">
        <ele>211.8</ele>
        <time>2015-12-15T14:55:17Z</time>
      </trkpt>
      <trkpt lat="47.25223" lon="5.0929">
        <ele>211.8</ele>
        <time>2015-12-15T14:55:24Z</time>
      </trkpt>
      <trkpt lat="47.25231" lon="5.09282">
        <ele>211.9</ele>
        <time>2015-12-15T14:55:31Z</time>
      </trkpt>
      <trkpt lat="47.25238" lon="5.09273">
        <ele>211.9</ele>
        <time>2015-12-15T14:55:39Z</time>
      </trkpt>
      <trkpt lat="47.25246" lon="5.09263">
        <ele>211.9</ele>
        <time>2015-12-15T14:55:47Z</time>
      </trkpt>
      <trkpt lat="47.25253" lon="5.09253">
        <ele>211.9</ele>
        <time>2015-12-15T14:55:55Z</time>
      </trkpt>
      <trkpt lat="47.25261" lon="5.09243">
        <ele>211.9</ele>
        <time>2015-12-15T14:56:03Z</time>
      </trkpt>
      <trkpt lat="47.25268" lon="5.09234">
        <ele>211.8</ele>
        <time>2015-12-15T14:56:11Z</time>
      </trkpt>
      <trkpt lat="47.25275" lon="5.09225">
        <ele>211.8</ele>
        <time>2015-12-15T14:56:18Z</time>
      </trkpt>
      <trkpt lat="47.25283" lon="5.09216">
        <ele>211.8</ele>
        <time>2015-12-15T14:56:26Z</time>
      </trkpt>
      <trkpt lat="47.25289" lon="5.09207">
        <ele>211.8</ele>
        <time>2015-12-15T14:56:33Z</time>
      </trkpt>
      <trkpt lat="47.25297" lon="5.09198">
        <ele>211.8</ele>
        <time>2015-12-15T14:56:41Z</time>
      </trkpt>
      <trkpt lat="47.25305" lon="5.09189">
        <ele>211.8</ele>
        <time>2015-12-15T14:56:48Z</time>
      </trkpt>
      <trkpt lat="47.25312" lon="5.09181">
        <ele>211.9</ele>
        <time>2015-12-15T14:56:55Z</time>
      </trkpt>
      <trkpt lat="47.2532" lon="5.09172">
        <ele>211.9</ele>
        <time>2015-12-15T14:57:02Z</time>
      </trkpt>
      <trkpt lat="47.25327" lon="5.09163">
        <ele>212.1</ele>
        <time>2015-12-15T14:57:10Z</time>
      </trkpt>
      <trkpt lat="47.25335" lon="5.09153">
        <ele>212.2</ele>
        <time>2015-12-15T14:57:18Z</time>
      </trkpt>
      <trkpt lat="47.25342" lon="5.09145">
        <ele>212.4</ele>
        <time>2015-12-15T14:57:25Z</time>
      </trkpt>
      <trkpt lat="47.2535" lon="5.09134">
        <ele>212.6</ele>
        <time>2015-12-15T14:57:33Z</time>
      </trkpt>
      <trkpt lat="47.25357" lon="5.09125">
        <ele>212.8</ele>
        <time>2015-12-15T14:57:41Z</time>
      </trkpt>
      <trkpt lat="47.25365" lon="5.09116">
        <ele>213</ele>
        <time>2015-12-15T14:57:49Z</time>
      </trkpt>
      <trkpt lat="47.25371" lon="5.09106">
        <ele>213.2</ele>
        <time>2015-12-15T14:57:57Z</time>
      </trkpt>
      <trkpt lat="47.25378" lon="5.09097">
        <ele>213.4</ele>
        <time>2015-12-15T14:58:05Z</time>
      </trkpt>
      <trkpt lat="47.25385" lon="5.09087">
        <ele>213.6</ele>
        <time>2015-12-15T14:58:13Z</time>
      </trkpt>
      <trkpt lat="47.25392" lon="5.09077">
        <ele>213.8</ele>
        <time>2015-12-15T14:58:21Z</time>
      </trkpt>
      <trkpt lat="47.25399" lon="5.09068">
        <ele>214</ele>
        <time>2015-12-15T14:58:29Z</time>
      </trkpt>
      <trkpt lat="47.25407" lon="5.0906">
        <ele>214.2</ele>
        <time>2015-12-15T14:58:36Z</time>
      </trkpt>
      <trkpt lat="47.25414" lon="5.09051">
        <ele>214.4</ele>
        <time>2015-12-15T14:58:43Z</time>
      </trkpt>
      <trkpt lat="47.25421" lon="5.09041">
        <ele>214.4</ele>
        <time>2015-12-15T14:58:51Z</time>
      </trkpt>
      <trkpt lat="47.25427" lon="5.09031">
        <ele>214.4</ele>
        <time>2015-12-15T14:59:00Z</time>
      </trkpt>
      <trkpt lat="47.25435" lon="5.09023">
        <ele>214.4</ele>
        <time>2015-12-15T14:59:10Z</time>
      </trkpt>
      <trkpt lat="47.25442" lon="5.09014">
        <ele>214.3</ele>
        <time>2015-12-15T14:59:18Z</time>
      </trkpt>
      <trkpt lat="47.2545" lon="5.09006">
        <ele>214.2</ele>
        <time>2015-12-15T14:59:27Z</time>
      </trkpt>
      <trkpt lat="47.25457" lon="5.08996">
        <ele>214.1</ele>
        <time>2015-12-15T14:59:36Z</time>
      </trkpt>
      <trkpt lat="47.25456" lon="5.08983">
        <ele>214.3</ele>
        <time>2015-12-15T15:02:09Z</time>
      </trkpt>
      <trkpt lat="47.2545" lon="5.08972">
        <ele>214.5</ele>
        <time>2015-12-15T15:02:17Z</time>
      </trkpt>
      <trkpt lat="47.25444" lon="5.08961">
        <ele>214.7</ele>
        <time>2015-12-15T15:02:25Z</time>
      </trkpt>
      <trkpt lat="47.25436" lon="5.08953">
        <ele>214.8</ele>
        <time>2015-12-15T15:02:34Z</time>
      </trkpt>
      <trkpt lat="47.25427" lon="5.08947">
        <ele>214.9</ele>
        <time>2015-12-15T15:02:46Z</time>
      </trkpt>
      <trkpt lat="47.2542" lon="5.08939">
        <ele>215</ele>
        <time>2015-12-15T15:02:55Z</time>
      </trkpt>
      <trkpt lat="47.25412" lon="5.08929">
        <ele>214.9</ele>
        <time>2015-12-15T15:03:03Z</time>
      </trkpt>
      <trkpt lat="47.25406" lon="5.08919">
        <ele>214.7</ele>
        <time>2015-12-15T15:03:09Z</time>
      </trkpt>
      <trkpt lat="47.25399" lon="5.08908">
        <ele>214.9</ele>
        <time>2015-12-15T15:03:16Z</time>
      </trkpt>
      <trkpt lat="47.25394" lon="5.08894">
        <ele>215.4</ele>
        <time>2015-12-15T15:03:24Z</time>
      </trkpt>
      <trkpt lat="47.2539" lon="5.0888">
        <ele>215.7</ele>
        <time>2015-12-15T15:03:32Z</time>
      </trkpt>
      <trkpt lat="47.25388" lon="5.08866">
        <ele>216.1</ele>
        <time>2015-12-15T15:03:40Z</time>
      </trkpt>
      <trkpt lat="47.25387" lon="5.08852">
        <ele>216.6</ele>
        <time>2015-12-15T15:03:47Z</time>
      </trkpt>
      <trkpt lat="47.25387" lon="5.08839">
        <ele>217</ele>
        <time>2015-12-15T15:03:54Z</time>
      </trkpt>
      <trkpt lat="47.25387" lon="5.08825">
        <ele>217.5</ele>
        <time>2015-12-15T15:04:02Z</time>
      </trkpt>
      <trkpt lat="47.25389" lon="5.08812">
        <ele>218</ele>
        <time>2015-12-15T15:04:10Z</time>
      </trkpt>
      <trkpt lat="47.2539" lon="5.08798">
        <ele>218.6</ele>
        <time>2015-12-15T15:04:18Z</time>
      </trkpt>
      <trkpt lat="47.25391" lon="5.08784">
        <ele>219</ele>
        <time>2015-12-15T15:04:25Z</time>
      </trkpt>
      <trkpt lat="47.25393" lon="5.0877">
        <ele>219.6</ele>
        <time>2015-12-15T15:04:33Z</time>
      </trkpt>
      <trkpt lat="47.25394" lon="5.08756">
        <ele>220</ele>
        <time>2015-12-15T15:04:41Z</time>
      </trkpt>
      <trkpt lat="47.25397" lon="5.08742">
        <ele>220.3</ele>
        <time>2015-12-15T15:04:56Z</time>
      </trkpt>
      <trkpt lat="47.25402" lon="5.0873">
        <ele>220.5</ele>
        <time>2015-12-15T15:05:05Z</time>
      </trkpt>
      <trkpt lat="47.25405" lon="5.08716">
        <ele>220.6</ele>
        <time>2015-12-15T15:05:14Z</time>
      </trkpt>
      <trkpt lat="47.2541" lon="5.08704">
        <ele>220.8</ele>
        <time>2015-12-15T15:05:24Z</time>
      </trkpt>
      <trkpt lat="47.25413" lon="5.0869">
        <ele>220.9</ele>
        <time>2015-12-15T15:05:33Z</time>
      </trkpt>
      <trkpt lat="47.25417" lon="5.08676">
        <ele>221</ele>
        <time>2015-12-15T15:05:42Z</time>
      </trkpt>
      <trkpt lat="47.25422" lon="5.08665">
        <ele>221</ele>
        <time>2015-12-15T15:05:51Z</time>
      </trkpt>
      <trkpt lat="47.25426" lon="5.08652">
        <ele>220.6</ele>
        <time>2015-12-15T15:06:04Z</time>
      </trkpt>
      <trkpt lat="47.25429" lon="5.08639">
        <ele>220.2</ele>
        <time>2015-12-15T15:06:12Z</time>
      </trkpt>
      <trkpt lat="47.25434" lon="5.08627">
        <ele>219.8</ele>
        <time>2015-12-15T15:06:20Z</time>
      </trkpt>
      <trkpt lat="47.25434" lon="5.08613">
        <ele>219.2</ele>
        <time>2015-12-15T15:06:28Z</time>
      </trkpt>
      <trkpt lat="47.25438" lon="5.08601">
        <ele>218.7</ele>
        <time>2015-12-15T15:06:36Z</time>
      </trkpt>
      <trkpt lat="47.2544" lon="5.08588">
        <ele>218.2</ele>
        <time>2015-12-15T15:06:44Z</time>
      </trkpt>
      <trkpt lat="47.25444" lon="5.08576">
        <ele>217.8</ele>
        <time>2015-12-15T15:06:54Z</time>
      </trkpt>
      <trkpt lat="47.25446" lon="5.08562">
        <ele>217.5</ele>
        <time>2015-12-15T15:07:09Z</time>
      </trkpt>
      <trkpt lat="47.25451" lon="5.08549">
        <ele>217.2</ele>
        <time>2015-12-15T15:07:17Z</time>
      </trkpt>
      <trkpt lat="47.25454" lon="5.08535">
        <ele>216.9</ele>
        <time>2015-12-15T15:07:27Z</time>
      </trkpt>
      <trkpt lat="47.25456" lon="5.08521">
        <ele>216.5</ele>
        <time>2015-12-15T15:07:37Z</time>
      </trkpt>
      <trkpt lat="47.25457" lon="5.08507">
        <ele>216.2</ele>
        <time>2015-12-15T15:07:44Z</time>
      </trkpt>
      <trkpt lat="47.25456" lon="5.08493">
        <ele>215.9</ele>
        <time>2015-12-15T15:07:50Z</time>
      </trkpt>
      <trkpt lat="47.25457" lon="5.0848">
        <ele>215.6</ele>
        <time>2015-12-15T15:08:03Z</time>
      </trkpt>
      <trkpt lat="47.25461" lon="5.08467">
        <ele>215.3</ele>
        <time>2015-12-15T15:08:10Z</time>
      </trkpt>
      <trkpt lat="47.25465" lon="5.08454">
        <ele>215</ele>
        <time>2015-12-15T15:08:17Z</time>
      </trkpt>
      <trkpt lat="47.25469" lon="5.08441">
        <ele>214.8</ele>
        <time>2015-12-15T15:08:25Z</time>
      </trkpt>
      <trkpt lat="47.25474" lon="5.08428">
        <ele>214.5</ele>
        <time>2015-12-15T15:08:33Z</time>
      </trkpt>
      <trkpt lat="47.25478" lon="5.08416">
        <ele>214.3</ele>
        <time>2015-12-15T15:08:40Z</time>
      </trkpt>
      <trkpt lat="47.25483" lon="5.08403">
        <ele>214.2</ele>
        <time>2015-12-15T15:08:48Z</time>
      </trkpt>
      <trkpt lat="47.25489" lon="5.08392">
        <ele>214.1</ele>
        <time>2015-12-15T15:08:56Z</time>
      </trkpt>
      <trkpt lat="47.25496" lon="5.0838">
        <ele>214</ele>
        <time>2015-12-15T15:09:05Z</time>
      </trkpt>
      <trkpt lat="47.25502" lon="5.08369">
        <ele>214</ele>
        <time>2015-12-15T15:09:12Z</time>
      </trkpt>
      <trkpt lat="47.25507" lon="5.08357">
        <ele>214.1</ele>
        <time>2015-12-15T15:09:19Z</time>
      </trkpt>
      <trkpt lat="47.25511" lon="5.08345">
        <ele>214.1</ele>
        <time>2015-12-15T15:09:27Z</time>
      </trkpt>
      <trkpt lat="47.25516" lon="5.08332">
        <ele>214.2</ele>
        <time>2015-12-15T15:09:35Z</time>
      </trkpt>
      <trkpt lat="47.2552" lon="5.0832">
        <ele>214.1</ele>
        <time>2015-12-15T15:09:43Z</time>
      </trkpt>
      <trkpt lat="47.25525" lon="5.08308">
        <ele>214</ele>
        <time>2015-12-15T15:09:51Z</time>
      </trkpt>
      <trkpt lat="47.2553" lon="5.08296">
        <ele>213.9</ele>
        <time>2015-12-15T15:09:59Z</time>
      </trkpt>
      <trkpt lat="47.25535" lon="5.08283">
        <ele>213.8</ele>
        <time>2015-12-15T15:10:07Z</time>
      </trkpt>
      <trkpt lat="47.2554" lon="5.0827">
        <ele>213.7</ele>
        <time>2015-12-15T15:10:15Z</time>
      </trkpt>
      <trkpt lat="47.25542" lon="5.08257">
        <ele>213.6</ele>
        <time>2015-12-15T15:10:26Z</time>
      </trkpt>
      <trkpt lat="47.25547" lon="5.08246">
        <ele>213.6</ele>
        <time>2015-12-15T15:10:34Z</time>
      </trkpt>
      <trkpt lat="47.25553" lon="5.08235">
        <ele>213.8</ele>
        <time>2015-12-15T15:10:42Z</time>
      </trkpt>
      <trkpt lat="47.25558" lon="5.08223">
        <ele>213.9</ele>
        <time>2015-12-15T15:10:49Z</time>
      </trkpt>
      <trkpt lat="47.25563" lon="5.0821">
        <ele>214.1</ele>
        <time>2015-12-15T15:10:57Z</time>
      </trkpt>
      <trkpt lat="47.25567" lon="5.08197">
        <ele>214.3</ele>
        <time>2015-12-15T15:11:05Z</time>
      </trkpt>
      <trkpt lat="47.25572" lon="5.08184">
        <ele>214.5</ele>
        <time>2015-12-15T15:11:13Z</time>
      </trkpt>
      <trkpt lat="47.25577" lon="5.08171">
        <ele>214.8</ele>
        <time>2015-12-15T15:11:21Z</time>
      </trkpt>
      <trkpt lat="47.25582" lon="5.0816">
        <ele>215</ele>
        <time>2015-12-15T15:11:29Z</time>
      </trkpt>
      <trkpt lat="47.25587" lon="5.08148">
        <ele>215.1</ele>
        <time>2015-12-15T15:11:37Z</time>
      </trkpt>
      <trkpt lat="47.25592" lon="5.08136">
        <ele>215.2</ele>
        <time>2015-12-15T15:11:45Z</time>
      </trkpt>
      <trkpt lat="47.25598" lon="5.08124">
        <ele>215.4</ele>
        <time>2015-12-15T15:11:53Z</time>
      </trkpt>
      <trkpt lat="47.25603" lon="5.08113">
        <ele>215.5</ele>
        <time>2015-12-15T15:12:01Z</time>
      </trkpt>
      <trkpt lat="47.25608" lon="5.08102">
        <ele>215.6</ele>
        <time>2015-12-15T15:12:09Z</time>
      </trkpt>
      <trkpt lat="47.25614" lon="5.08091">
        <ele>215.7</ele>
        <time>2015-12-15T15:12:17Z</time>
      </trkpt>
      <trkpt lat="47.25619" lon="5.08078">
        <ele>215.8</ele>
        <time>2015-12-15T15:12:25Z</time>
      </trkpt>
      <trkpt lat="47.25625" lon="5.08068">
        <ele>215.9</ele>
        <time>2015-12-15T15:12:32Z</time>
      </trkpt>
      <trkpt lat="47.25631" lon="5.08056">
        <ele>215.9</ele>
        <time>2015-12-15T15:12:39Z</time>
      </trkpt>
      <trkpt lat="47.25636" lon="5.08045">
        <ele>216</ele>
        <time>2015-12-15T15:12:46Z</time>
      </trkpt>
      <trkpt lat="47.25641" lon="5.08033">
        <ele>216</ele>
        <time>2015-12-15T15:12:54Z</time>
      </trkpt>
      <trkpt lat="47.25647" lon="5.0802">
        <ele>215.9</ele>
        <time>2015-12-15T15:13:02Z</time>
      </trkpt>
      <trkpt lat="47.25652" lon="5.08009">
        <ele>215.9</ele>
        <time>2015-12-15T15:13:09Z</time>
      </trkpt>
      <trkpt lat="47.25658" lon="5.07998">
        <ele>215.9</ele>
        <time>2015-12-15T15:13:17Z</time>
      </trkpt>
      <trkpt lat="47.25662" lon="5.07985">
        <ele>216.1</ele>
        <time>2015-12-15T15:13:26Z</time>
      </trkpt>
      <trkpt lat="47.25667" lon="5.07973">
        <ele>216.3</ele>
        <time>2015-12-15T15:13:35Z</time>
      </trkpt>
      <trkpt lat="47.25673" lon="5.07962">
        <ele>216.4</ele>
        <time>2015-12-15T15:13:42Z</time>
      </trkpt>
      <trkpt lat="47.25678" lon="5.0795">
        <ele>216.4</ele>
        <time>2015-12-15T15:13:49Z</time>
      </trkpt>
      <trkpt lat="47.25683" lon="5.07938">
        <ele>216.4</ele>
        <time>2015-12-15T15:13:57Z</time>
      </trkpt>
      <trkpt lat="47.25688" lon="5.07926">
        <ele>216.4</ele>
        <time>2015-12-15T15:14:05Z</time>
      </trkpt>
      <trkpt lat="47.25694" lon="5.07914">
        <ele>216.3</ele>
        <time>2015-12-15T15:14:14Z</time>
      </trkpt>
      <trkpt lat="47.25699" lon="5.07902">
        <ele>216.2</ele>
        <time>2015-12-15T15:14:22Z</time>
      </trkpt>
      <trkpt lat="47.25706" lon="5.07891">
        <ele>216.1</ele>
        <time>2015-12-15T15:14:30Z</time>
      </trkpt>
      <trkpt lat="47.25712" lon="5.0788">
        <ele>215.9</ele>
        <time>2015-12-15T15:14:37Z</time>
      </trkpt>
      <trkpt lat="47.25717" lon="5.07869">
        <ele>215.8</ele>
        <time>2015-12-15T15:14:44Z</time>
      </trkpt>
      <trkpt lat="47.25723" lon="5.07857">
        <ele>215.6</ele>
        <time>2015-12-15T15:14:52Z</time>
      </trkpt>
      <trkpt lat="47.25728" lon="5.07845">
        <ele>215.5</ele>
        <time>2015-12-15T15:15:00Z</time>
      </trkpt>
      <trkpt lat="47.25733" lon="5.07833">
        <ele>215.4</ele>
        <time>2015-12-15T15:15:08Z</time>
      </trkpt>
      <trkpt lat="47.25738" lon="5.07822">
        <ele>215.4</ele>
        <time>2015-12-15T15:15:15Z</time>
      </trkpt>
      <trkpt lat="47.25744" lon="5.07809">
        <ele>215.4</ele>
        <time>2015-12-15T15:15:23Z</time>
      </trkpt>
      <trkpt lat="47.2575" lon="5.07797">
        <ele>215.4</ele>
        <time>2015-12-15T15:15:31Z</time>
      </trkpt>
      <trkpt lat="47.25756" lon="5.07785">
        <ele>215.6</ele>
        <time>2015-12-15T15:15:39Z</time>
      </trkpt>
      <trkpt lat="47.25762" lon="5.07775">
        <ele>215.8</ele>
        <time>2015-12-15T15:15:46Z</time>
      </trkpt>
      <trkpt lat="47.25767" lon="5.07764">
        <ele>215.9</ele>
        <time>2015-12-15T15:15:53Z</time>
      </trkpt>
      <trkpt lat="47.25773" lon="5.07752">
        <ele>216</ele>
        <time>2015-12-15T15:16:01Z</time>
      </trkpt>
      <trkpt lat="47.25778" lon="5.07739">
        <ele>216.1</ele>
        <time>2015-12-15T16:17:20Z</time>
      </trkpt>
      <trkpt lat="47.25782" lon="5.07726">
        <ele>216.2</ele>
        <time>2015-12-15T15:16:19Z</time>
      </trkpt>
      <trkpt lat="47.25787" lon="5.07715">
        <ele>216.2</ele>
        <time>2015-12-15T15:16:28Z</time>
      </trkpt>
      <trkpt lat="47.25793" lon="5.07705">
        <ele>216.3</ele>
        <time>2015-12-15T15:16:39Z</time>
      </trkpt>
      <trkpt lat="47.258" lon="5.07696">
        <ele>216.3</ele>
        <time>2015-12-15T15:16:55Z</time>
      </trkpt>
      <trkpt lat="47.25809" lon="5.07702">
        <ele>216.2</ele>
        <time>2015-12-15T15:17:20Z</time>
      </trkpt>
      <trkpt lat="47.25819" lon="5.07705">
        <ele>216.1</ele>
        <time>2015-12-15T15:17:31Z</time>
      </trkpt>
      <trkpt lat="47.25828" lon="5.07707">
        <ele>216</ele>
        <time>2015-12-15T15:17:39Z</time>
      </trkpt>
      <trkpt lat="47.25837" lon="5.07706">
        <ele>216.1</ele>
        <time>2015-12-15T15:17:47Z</time>
      </trkpt>
      <trkpt lat="47.25845" lon="5.077">
        <ele>216.3</ele>
        <time>2015-12-15T15:17:55Z</time>
      </trkpt>
      <trkpt lat="47.25852" lon="5.0769">
        <ele>216.5</ele>
        <time>2015-12-15T15:18:04Z</time>
      </trkpt>
      <trkpt lat="47.2586" lon="5.07681">
        <ele>216.7</ele>
        <time>2015-12-15T15:18:13Z</time>
      </trkpt>
      <trkpt lat="47.25868" lon="5.07674">
        <ele>216.9</ele>
        <time>2015-12-15T15:18:21Z</time>
      </trkpt>
      <trkpt lat="47.25876" lon="5.07665">
        <ele>217.1</ele>
        <time>2015-12-15T15:18:29Z</time>
      </trkpt>
      <trkpt lat="47.25884" lon="5.07656">
        <ele>217.4</ele>
        <time>2015-12-15T15:18:37Z</time>
      </trkpt>
      <trkpt lat="47.25891" lon="5.07648">
        <ele>217.6</ele>
        <time>2015-12-15T15:18:45Z</time>
      </trkpt>
      <trkpt lat="47.25897" lon="5.07638">
        <ele>217.8</ele>
        <time>2015-12-15T15:18:54Z</time>
      </trkpt>
      <trkpt lat="47.25905" lon="5.07628">
        <ele>217.9</ele>
        <time>2015-12-15T15:19:04Z</time>
      </trkpt>
      <trkpt lat="47.25913" lon="5.07622">
        <ele>218</ele>
        <time>2015-12-15T15:19:12Z</time>
      </trkpt>
      <trkpt lat="47.25921" lon="5.07614">
        <ele>218</ele>
        <time>2015-12-15T15:19:19Z</time>
      </trkpt>
      <trkpt lat="47.25929" lon="5.07608">
        <ele>218.1</ele>
        <time>2015-12-15T15:19:26Z</time>
      </trkpt>
      <trkpt lat="47.25937" lon="5.076">
        <ele>218.2</ele>
        <time>2015-12-15T15:19:35Z</time>
      </trkpt>
      <trkpt lat="47.25945" lon="5.07591">
        <ele>218.3</ele>
        <time>2015-12-15T15:19:43Z</time>
      </trkpt>
      <trkpt lat="47.25953" lon="5.07585">
        <ele>218.4</ele>
        <time>2015-12-15T15:19:50Z</time>
      </trkpt>
      <trkpt lat="47.25962" lon="5.07578">
        <ele>218.6</ele>
        <time>2015-12-15T15:19:57Z</time>
      </trkpt>
      <trkpt lat="47.2597" lon="5.07573">
        <ele>218.7</ele>
        <time>2015-12-15T15:20:04Z</time>
      </trkpt>
      <trkpt lat="47.25979" lon="5.07565">
        <ele>218.8</ele>
        <time>2015-12-15T15:20:11Z</time>
      </trkpt>
      <trkpt lat="47.25988" lon="5.07558">
        <ele>218.9</ele>
        <time>2015-12-15T15:20:18Z</time>
      </trkpt>
      <trkpt lat="47.25996" lon="5.0755">
        <ele>219</ele>
        <time>2015-12-15T15:20:26Z</time>
      </trkpt>
      <trkpt lat="47.26004" lon="5.07543">
        <ele>218.9</ele>
        <time>2015-12-15T15:20:33Z</time>
      </trkpt>
      <trkpt lat="47.26012" lon="5.07534">
        <ele>218.9</ele>
        <time>2015-12-15T15:20:40Z</time>
      </trkpt>
      <trkpt lat="47.26019" lon="5.07526">
        <ele>218.8</ele>
        <time>2015-12-15T15:20:48Z</time>
      </trkpt>
      <trkpt lat="47.26026" lon="5.07517">
        <ele>218.7</ele>
        <time>2015-12-15T15:21:01Z</time>
      </trkpt>
      <trkpt lat="47.26033" lon="5.07507">
        <ele>218.6</ele>
        <time>2015-12-15T15:21:12Z</time>
      </trkpt>
      <trkpt lat="47.26042" lon="5.07502">
        <ele>218.5</ele>
        <time>2015-12-15T15:21:25Z</time>
      </trkpt>
      <trkpt lat="47.26052" lon="5.07499">
        <ele>218.4</ele>
        <time>2015-12-15T15:21:32Z</time>
      </trkpt>
      <trkpt lat="47.26061" lon="5.07499">
        <ele>218.3</ele>
        <time>2015-12-15T15:21:38Z</time>
      </trkpt>
      <trkpt lat="47.26071" lon="5.07501">
        <ele>218.1</ele>
        <time>2015-12-15T15:21:45Z</time>
      </trkpt>
      <trkpt lat="47.26081" lon="5.07503">
        <ele>218</ele>
        <time>2015-12-15T15:21:53Z</time>
      </trkpt>
      <trkpt lat="47.26091" lon="5.07503">
        <ele>218.1</ele>
        <time>2015-12-15T15:22:02Z</time>
      </trkpt>
      <trkpt lat="47.26101" lon="5.07505">
        <ele>218.2</ele>
        <time>2015-12-15T15:22:09Z</time>
      </trkpt>
      <trkpt lat="47.2611" lon="5.07506">
        <ele>218.3</ele>
        <time>2015-12-15T15:22:15Z</time>
      </trkpt>
      <trkpt lat="47.2612" lon="5.0751">
        <ele>218.4</ele>
        <time>2015-12-15T15:22:20Z</time>
      </trkpt>
      <trkpt lat="47.26129" lon="5.07513">
        <ele>218.5</ele>
        <time>2015-12-15T15:22:26Z</time>
      </trkpt>
      <trkpt lat="47.26138" lon="5.07514">
        <ele>218.6</ele>
        <time>2015-12-15T15:22:34Z</time>
      </trkpt>
      <trkpt lat="47.26148" lon="5.07515">
        <ele>218.6</ele>
        <time>2015-12-15T15:22:41Z</time>
      </trkpt>
      <trkpt lat="47.26157" lon="5.0752">
        <ele>218.7</ele>
        <time>2015-12-15T15:22:49Z</time>
      </trkpt>
      <trkpt lat="47.26165" lon="5.07525">
        <ele>218.7</ele>
        <time>2015-12-15T15:22:57Z</time>
      </trkpt>
      <trkpt lat="47.26174" lon="5.07528">
        <ele>218.7</ele>
        <time>2015-12-15T15:23:09Z</time>
      </trkpt>
      <trkpt lat="47.26184" lon="5.07533">
        <ele>218.6</ele>
        <time>2015-12-15T15:23:18Z</time>
      </trkpt>
      <trkpt lat="47.26193" lon="5.07535">
        <ele>218.7</ele>
        <time>2015-12-15T15:23:26Z</time>
      </trkpt>
      <trkpt lat="47.26203" lon="5.07538">
        <ele>218.7</ele>
        <time>2015-12-15T15:23:35Z</time>
      </trkpt>
      <trkpt lat="47.26211" lon="5.07544">
        <ele>218.8</ele>
        <time>2015-12-15T15:23:45Z</time>
      </trkpt>
      <trkpt lat="47.2622" lon="5.0755">
        <ele>218.9</ele>
        <time>2015-12-15T15:23:54Z</time>
      </trkpt>
      <trkpt lat="47.26229" lon="5.07553">
        <ele>219.1</ele>
        <time>2015-12-15T15:24:02Z</time>
      </trkpt>
      <trkpt lat="47.2624" lon="5.07559">
        <ele>219.3</ele>
        <time>2015-12-15T15:24:09Z</time>
      </trkpt>
      <trkpt lat="47.26251" lon="5.07563">
        <ele>219.5</ele>
        <time>2015-12-15T15:24:14Z</time>
      </trkpt>
      <trkpt lat="47.26259" lon="5.07566">
        <ele>219.5</ele>
        <time>2015-12-15T15:24:18Z</time>
      </trkpt>
      <trkpt lat="47.2627" lon="5.07569">
        <ele>219.4</ele>
        <time>2015-12-15T15:24:23Z</time>
      </trkpt>
      <trkpt lat="47.2628" lon="5.07572">
        <ele>219.4</ele>
        <time>2015-12-15T15:24:29Z</time>
      </trkpt>
      <trkpt lat="47.2629" lon="5.07574">
        <ele>219.4</ele>
        <time>2015-12-15T15:24:35Z</time>
      </trkpt>
      <trkpt lat="47.26299" lon="5.07579">
        <ele>219.3</ele>
        <time>2015-12-15T15:24:42Z</time>
      </trkpt>
      <trkpt lat="47.26305" lon="5.07582">
        <ele>219.3</ele>
        <time>2015-12-15T15:25:02Z</time>
      </trkpt>
    </trkseg>
  </trk>
</gpx>